Time,TemperatureF,DewpointF,PressureIn,WindDirection,WindDirectionDegrees,WindSpeedMPH,WindSpeedGustMPH,Humidity,HourlyPrecipIn,Conditions,Clouds,dailyrainin,SoftwareType,DateUTC
2013-04-20 00:02:00,59.2,33.0,29.92,ESE,106,2.0,4.0,37,0.00,,,0.00,VWS V14.01,2013-04-20 07:02:00,
2013-04-20 00:03:00,59.1,33.5,29.92,ESE,111,3.0,4.0,38,0.00,,,0.00,VWS V14.01,2013-04-20 07:03:00,
2013-04-20 00:04:00,59.0,33.5,29.92,East,96,3.0,5.0,38,0.00,,,0.00,VWS V14.01,2013-04-20 07:04:00,
2013-04-20 00:06:00,58.9,33.4,29.92,East,90,3.0,4.0,38,0.00,,,0.00,VWS V14.01,2013-04-20 07:06:00,
2013-04-20 00:07:00,58.8,33.3,29.92,ESE,103,3.0,5.0,38,0.00,,,0.00,VWS V14.01,2013-04-20 07:07:00,
2013-04-20 00:09:00,58.7,33.8,29.92,East,87,3.0,6.0,39,0.00,,,0.00,VWS V14.01,2013-04-20 07:09:00,
2013-04-20 00:10:00,58.6,33.7,29.92,East,89,4.0,5.0,39,0.00,,,0.00,VWS V14.01,2013-04-20 07:10:00,
2013-04-20 00:12:00,58.5,34.3,29.92,ESE,107,5.0,5.0,40,0.00,,,0.00,VWS V14.01,2013-04-20 07:12:00,
2013-04-20 00:14:00,58.5,34.9,29.92,East,100,4.0,5.0,41,0.00,,,0.00,VWS V14.01,2013-04-20 07:14:00,
2013-04-20 00:15:00,58.5,35.5,29.93,ESE,113,3.0,4.0,42,0.00,,,0.00,VWS V14.01,2013-04-20 07:15:00,
2013-04-20 00:16:00,58.4,36.0,29.93,SE,137,3.0,6.0,43,0.00,,,0.00,VWS V14.01,2013-04-20 07:16:00,
2013-04-20 00:19:00,58.3,38.2,29.93,East,96,6.0,7.0,47,0.00,,,0.00,VWS V14.01,2013-04-20 07:19:00,
2013-04-20 00:21:00,58.2,39.2,29.93,ESE,105,4.0,7.0,49,0.00,,,0.00,VWS V14.01,2013-04-20 07:21:00,
2013-04-20 00:22:00,58.2,39.7,29.93,East,100,4.0,6.0,50,0.00,,,0.00,VWS V14.01,2013-04-20 07:22:00,
2013-04-20 00:25:00,58.0,40.0,29.93,East,94,5.0,6.0,51,0.00,,,0.00,VWS V14.01,2013-04-20 07:25:00,
2013-04-20 00:26:00,58.0,40.5,29.93,ESE,122,6.0,7.0,52,0.00,,,0.00,VWS V14.01,2013-04-20 07:26:00,
2013-04-20 00:27:00,58.0,41.5,29.93,East,93,4.0,6.0,54,0.00,,,0.00,VWS V14.01,2013-04-20 07:27:00,
2013-04-20 00:28:00,58.0,42.9,29.92,East,90,5.0,8.0,57,0.00,,,0.00,VWS V14.01,2013-04-20 07:28:00,
2013-04-20 00:30:00,57.9,43.2,29.92,ESE,110,5.0,7.0,58,0.00,,,0.00,VWS V14.01,2013-04-20 07:30:00,
2013-04-20 00:31:00,57.8,43.6,29.92,East,96,6.0,6.0,59,0.00,,,0.00,VWS V14.01,2013-04-20 07:31:00,
2013-04-20 00:34:00,57.7,43.9,29.92,ESE,118,2.0,4.0,60,0.00,,,0.00,VWS V14.01,2013-04-20 07:34:00,
2013-04-20 00:35:00,57.7,43.9,29.92,SSE,152,2.0,4.0,60,0.00,,,0.00,VWS V14.01,2013-04-20 07:35:00,
2013-04-20 00:36:00,57.6,43.8,29.92,SE,136,4.0,5.0,60,0.00,,,0.00,VWS V14.01,2013-04-20 07:36:00,
2013-04-20 00:37:00,57.6,44.3,29.92,SE,134,3.0,6.0,61,0.00,,,0.00,VWS V14.01,2013-04-20 07:37:00,
2013-04-20 00:39:00,57.6,44.3,29.92,SE,136,2.0,2.0,61,0.00,,,0.00,VWS V14.01,2013-04-20 07:39:00,
2013-04-20 00:41:00,57.5,44.6,29.92,East,100,3.0,4.0,62,0.00,,,0.00,VWS V14.01,2013-04-20 07:41:00,
2013-04-20 00:42:00,57.5,45.0,29.92,SE,142,5.0,5.0,63,0.00,,,0.00,VWS V14.01,2013-04-20 07:42:00,
2013-04-20 00:45:00,57.4,46.2,29.92,SE,131,4.0,4.0,66,0.00,,,0.00,VWS V14.01,2013-04-20 07:45:00,
2013-04-20 00:47:00,57.4,46.5,29.92,ESE,108,5.0,5.0,67,0.00,,,0.00,VWS V14.01,2013-04-20 07:47:00,
2013-04-20 00:48:00,57.4,46.9,29.92,SE,133,2.0,3.0,68,0.00,,,0.00,VWS V14.01,2013-04-20 07:48:00,
2013-04-20 00:49:00,57.3,47.6,29.92,SE,131,1.0,3.0,70,0.00,,,0.00,VWS V14.01,2013-04-20 07:49:00,
2013-04-20 00:51:00,57.3,48.0,29.92,South,188,0.0,2.0,71,0.00,,,0.00,VWS V14.01,2013-04-20 07:51:00,
2013-04-20 00:52:00,57.3,48.0,29.92,SE,138,1.0,1.0,71,0.00,,,0.00,VWS V14.01,2013-04-20 07:52:00,
2013-04-20 00:55:00,57.2,47.9,29.92,ESE,123,1.0,3.0,71,0.00,,,0.00,VWS V14.01,2013-04-20 07:55:00,
2013-04-20 00:56:00,57.1,47.8,29.92,South,170,2.0,2.0,71,0.00,,,0.00,VWS V14.01,2013-04-20 07:56:00,
2013-04-20 00:59:00,57.1,47.8,29.92,SE,134,2.0,5.0,71,0.00,,,0.00,VWS V14.01,2013-04-20 07:59:00,
2013-04-20 01:00:00,57.1,47.8,29.92,SE,127,2.0,4.0,71,0.00,,,0.00,VWS V14.01,2013-04-20 08:00:00,
2013-04-20 01:01:00,57.1,47.8,29.92,SE,125,2.0,2.0,71,0.00,,,0.00,VWS V14.01,2013-04-20 08:01:00,
2013-04-20 01:03:00,57.0,47.3,29.92,SE,131,2.0,3.0,70,0.00,,,0.00,VWS V14.01,2013-04-20 08:03:00,
2013-04-20 01:04:00,57.0,47.3,29.92,SE,134,1.0,2.0,70,0.00,,,0.00,VWS V14.01,2013-04-20 08:04:00,
2013-04-20 01:05:00,56.9,46.8,29.92,ESE,121,2.0,2.0,69,0.00,,,0.00,VWS V14.01,2013-04-20 08:05:00,
2013-04-20 01:08:00,56.7,45.9,29.92,ESE,123,1.0,2.0,67,0.00,,,0.00,VWS V14.01,2013-04-20 08:08:00,
2013-04-20 01:09:00,56.7,45.9,29.92,SE,131,2.0,3.0,67,0.00,,,0.00,VWS V14.01,2013-04-20 08:09:00,
2013-04-20 01:10:00,56.7,45.9,29.92,SSE,152,1.0,1.0,67,0.00,,,0.00,VWS V14.01,2013-04-20 08:10:00,
2013-04-20 01:11:00,56.7,45.9,29.92,SSE,158,1.0,1.0,67,0.00,,,0.00,VWS V14.01,2013-04-20 08:11:00,
2013-04-20 01:13:00,56.6,45.8,29.92,SE,146,1.0,2.0,67,0.00,,,0.00,VWS V14.01,2013-04-20 08:13:00,
2013-04-20 01:14:00,56.6,46.2,29.91,SE,127,1.0,2.0,68,0.00,,,0.00,VWS V14.01,2013-04-20 08:14:00,
2013-04-20 01:15:00,56.6,46.2,29.91,ESE,111,1.0,2.0,68,0.00,,,0.00,VWS V14.01,2013-04-20 08:15:00,
2013-04-20 01:16:00,56.6,46.2,29.91,East,101,1.0,1.0,68,0.00,,,0.00,VWS V14.01,2013-04-20 08:16:00,
2013-04-20 01:20:00,56.5,46.1,29.92,East,90,1.0,1.0,68,0.00,,,0.00,VWS V14.01,2013-04-20 08:20:00,
2013-04-20 01:21:00,56.4,46.0,29.92,East,80,0.0,2.0,68,0.00,,,0.00,VWS V14.01,2013-04-20 08:21:00,
2013-04-20 01:24:00,56.4,46.4,29.91,SE,140,1.0,2.0,69,0.00,,,0.00,VWS V14.01,2013-04-20 08:24:00,
2013-04-20 01:26:00,56.3,46.3,29.91,SE,134,0.0,1.0,69,0.00,,,0.00,VWS V14.01,2013-04-20 08:26:00,
2013-04-20 01:27:00,56.2,46.2,29.91,SE,138,1.0,1.0,69,0.00,,,0.00,VWS V14.01,2013-04-20 08:27:00,
2013-04-20 01:29:00,56.2,46.6,29.91,SE,134,1.0,2.0,70,0.00,,,0.00,VWS V14.01,2013-04-20 08:29:00,
2013-04-20 01:30:00,56.2,46.6,29.91,SE,141,2.0,3.0,70,0.00,,,0.00,VWS V14.01,2013-04-20 08:30:00,
2013-04-20 01:33:00,56.1,46.8,29.91,SE,127,1.0,2.0,71,0.00,,,0.00,VWS V14.01,2013-04-20 08:33:00,
2013-04-20 01:34:00,56.1,46.8,29.91,SE,136,1.0,1.0,71,0.00,,,0.00,VWS V14.01,2013-04-20 08:34:00,
2013-04-20 01:35:00,56.1,46.8,29.91,ESE,115,1.0,1.0,71,0.00,,,0.00,VWS V14.01,2013-04-20 08:35:00,
2013-04-20 01:37:00,56.0,47.1,29.91,ESE,109,2.0,3.0,72,0.00,,,0.00,VWS V14.01,2013-04-20 08:37:00,
2013-04-20 01:38:00,56.0,47.5,29.91,ESE,113,2.0,3.0,73,0.00,,,0.00,VWS V14.01,2013-04-20 08:38:00,
2013-04-20 01:39:00,55.9,47.4,29.91,East,83,1.0,2.0,73,0.00,,,0.00,VWS V14.01,2013-04-20 08:39:00,
2013-04-20 01:40:00,55.9,47.4,29.91,East,83,2.0,3.0,73,0.00,,,0.00,VWS V14.01,2013-04-20 08:40:00,
2013-04-20 01:45:00,55.7,47.2,29.91,East,95,2.0,2.0,73,0.00,,,0.00,VWS V14.01,2013-04-20 08:45:00,
2013-04-20 01:46:00,55.7,47.2,29.91,ESE,104,2.0,2.0,73,0.00,,,0.00,VWS V14.01,2013-04-20 08:46:00,
2013-04-20 01:47:00,55.6,47.1,29.91,ESE,103,1.0,2.0,73,0.00,,,0.00,VWS V14.01,2013-04-20 08:47:00,
2013-04-20 01:48:00,55.6,47.1,29.91,ESE,112,1.0,2.0,73,0.00,,,0.00,VWS V14.01,2013-04-20 08:48:00,
2013-04-20 01:50:00,55.5,47.0,29.90,East,89,2.0,2.0,73,0.00,,,0.00,VWS V14.01,2013-04-20 08:50:00,
2013-04-20 01:52:00,55.4,46.9,29.90,ESE,113,2.0,2.0,73,0.00,,,0.00,VWS V14.01,2013-04-20 08:52:00,
2013-04-20 01:53:00,55.4,46.9,29.90,ESE,113,1.0,2.0,73,0.00,,,0.00,VWS V14.01,2013-04-20 08:53:00,
2013-04-20 01:54:00,55.3,46.8,29.90,ESE,115,1.0,2.0,73,0.00,,,0.00,VWS V14.01,2013-04-20 08:54:00,
2013-04-20 01:55:00,55.3,46.8,29.90,SE,127,1.0,1.0,73,0.00,,,0.00,VWS V14.01,2013-04-20 08:55:00,
2013-04-20 01:57:00,55.2,46.7,29.90,SE,134,1.0,1.0,73,0.00,,,0.00,VWS V14.01,2013-04-20 08:57:00,
2013-04-20 01:58:00,55.1,46.6,29.90,SE,143,1.0,1.0,73,0.00,,,0.00,VWS V14.01,2013-04-20 08:58:00,
2013-04-20 01:59:00,55.1,47.0,29.90,SE,127,1.0,1.0,74,0.00,,,0.00,VWS V14.01,2013-04-20 08:59:00,
2013-04-20 02:00:00,55.1,47.0,29.90,SE,141,1.0,1.0,74,0.00,,,0.00,VWS V14.01,2013-04-20 09:00:00,
2013-04-20 02:03:00,54.9,46.8,29.90,ESE,121,0.0,1.0,74,0.00,,,0.00,VWS V14.01,2013-04-20 09:03:00,
2013-04-20 02:04:00,54.8,46.7,29.89,ESE,121,1.0,1.0,74,0.00,,,0.00,VWS V14.01,2013-04-20 09:04:00,
2013-04-20 02:06:00,54.7,46.9,29.89,SE,125,1.0,1.0,75,0.00,,,0.00,VWS V14.01,2013-04-20 09:06:00,
2013-04-20 02:08:00,54.8,47.0,29.89,SE,124,0.0,1.0,75,0.00,,,0.00,VWS V14.01,2013-04-20 09:08:00,
2013-04-20 02:09:00,54.8,47.0,29.89,SE,124,1.0,1.0,75,0.00,,,0.00,VWS V14.01,2013-04-20 09:09:00,
2013-04-20 02:10:00,54.8,47.4,29.89,ESE,120,1.0,1.0,76,0.00,,,0.00,VWS V14.01,2013-04-20 09:10:00,
2013-04-20 02:13:00,54.8,47.4,29.89,East,80,2.0,3.0,76,0.00,,,0.00,VWS V14.01,2013-04-20 09:13:00,
2013-04-20 02:14:00,54.8,47.4,29.89,ENE,66,2.0,3.0,76,0.00,,,0.00,VWS V14.01,2013-04-20 09:14:00,
2013-04-20 02:15:00,54.8,47.4,29.89,NE,53,2.0,3.0,76,0.00,,,0.00,VWS V14.01,2013-04-20 09:15:00,
2013-04-20 02:16:00,54.8,47.4,29.89,ENE,72,3.0,3.0,76,0.00,,,0.00,VWS V14.01,2013-04-20 09:16:00,
2013-04-20 02:19:00,54.7,47.6,29.89,ENE,60,3.0,3.0,77,0.00,,,0.00,VWS V14.01,2013-04-20 09:19:00,
2013-04-20 02:21:00,54.7,47.3,29.89,East,93,1.0,2.0,76,0.00,,,0.00,VWS V14.01,2013-04-20 09:21:00,
2013-04-20 02:23:00,54.6,47.2,29.88,East,90,2.0,3.0,76,0.00,,,0.00,VWS V14.01,2013-04-20 09:23:00,
2013-04-20 02:24:00,54.5,47.1,29.88,East,93,2.0,2.0,76,0.00,,,0.00,VWS V14.01,2013-04-20 09:24:00,
2013-04-20 02:26:00,54.5,47.1,29.88,ESE,103,1.0,2.0,76,0.00,,,0.00,VWS V14.01,2013-04-20 09:26:00,
2013-04-20 02:28:00,54.4,47.0,29.88,East,98,1.0,3.0,76,0.00,,,0.00,VWS V14.01,2013-04-20 09:28:00,
2013-04-20 02:29:00,54.4,47.0,29.88,ESE,111,2.0,3.0,76,0.00,,,0.00,VWS V14.01,2013-04-20 09:29:00,
2013-04-20 02:30:00,54.4,47.0,29.88,ESE,107,2.0,2.0,76,0.00,,,0.00,VWS V14.01,2013-04-20 09:30:00,
2013-04-20 02:31:00,54.4,47.0,29.88,SE,140,2.0,2.0,76,0.00,,,0.00,VWS V14.01,2013-04-20 09:31:00,
2013-04-20 02:35:00,54.3,46.9,29.87,East,98,3.0,4.0,76,0.00,,,0.00,VWS V14.01,2013-04-20 09:35:00,
2013-04-20 02:36:00,54.3,46.9,29.87,SE,124,2.0,4.0,76,0.00,,,0.00,VWS V14.01,2013-04-20 09:36:00,
2013-04-20 02:37:00,54.3,46.9,29.88,East,98,1.0,3.0,76,0.00,,,0.00,VWS V14.01,2013-04-20 09:37:00,
2013-04-20 02:40:00,54.3,47.2,29.87,SE,127,2.0,3.0,77,0.00,,,0.00,VWS V14.01,2013-04-20 09:40:00,
2013-04-20 02:42:00,54.4,47.3,29.88,ENE,60,3.0,3.0,77,0.00,,,0.00,VWS V14.01,2013-04-20 09:42:00,
2013-04-20 02:43:00,54.4,47.3,29.88,ENE,69,2.0,3.0,77,0.00,,,0.00,VWS V14.01,2013-04-20 09:43:00,
2013-04-20 02:44:00,54.4,47.3,29.88,ENE,77,2.0,3.0,77,0.00,,,0.00,VWS V14.01,2013-04-20 09:44:00,
2013-04-20 02:45:00,54.4,47.3,29.88,NE,50,1.0,2.0,77,0.00,,,0.00,VWS V14.01,2013-04-20 09:45:00,
2013-04-20 02:48:00,54.3,47.2,29.88,ESE,112,2.0,2.0,77,0.00,,,0.00,VWS V14.01,2013-04-20 09:48:00,
2013-04-20 02:49:00,54.3,47.2,29.88,East,101,2.0,3.0,77,0.00,,,0.00,VWS V14.01,2013-04-20 09:49:00,
2013-04-20 02:50:00,54.3,47.2,29.88,SE,124,2.0,3.0,77,0.00,,,0.00,VWS V14.01,2013-04-20 09:50:00,
2013-04-20 02:51:00,54.2,47.2,29.88,ESE,117,2.0,2.0,77,0.00,,,0.00,VWS V14.01,2013-04-20 09:51:00,
2013-04-20 02:55:00,54.1,47.1,29.88,East,83,1.0,2.0,77,0.00,,,0.00,VWS V14.01,2013-04-20 09:55:00,
2013-04-20 02:56:00,54.1,47.1,29.88,East,82,1.0,1.0,77,0.00,,,0.00,VWS V14.01,2013-04-20 09:56:00,
2013-04-20 02:57:00,54.1,47.1,29.88,East,82,0.0,1.0,77,0.00,,,0.00,VWS V14.01,2013-04-20 09:57:00,
2013-04-20 02:59:00,54.1,47.4,29.88,East,96,1.0,2.0,78,0.00,,,0.00,VWS V14.01,2013-04-20 09:59:00,
2013-04-20 03:02:00,54.1,47.7,29.88,ESE,113,0.0,1.0,79,0.00,,,0.00,VWS V14.01,2013-04-20 10:02:00,
2013-04-20 03:03:00,54.1,47.7,29.88,ESE,113,1.0,1.0,79,0.00,,,0.00,VWS V14.01,2013-04-20 10:03:00,
2013-04-20 03:05:00,54.1,47.7,29.88,ESE,113,0.0,1.0,79,0.00,,,0.00,VWS V14.01,2013-04-20 10:05:00,
2013-04-20 03:06:00,54.1,47.7,29.88,ESE,113,0.0,0.0,79,0.00,,,0.00,VWS V14.01,2013-04-20 10:06:00,
2013-04-20 03:08:00,54.0,47.6,29.88,ESE,113,0.0,0.0,79,0.00,,,0.00,VWS V14.01,2013-04-20 10:08:00,
2013-04-20 03:10:00,53.9,47.5,29.88,ESE,113,0.0,0.0,79,0.00,,,0.00,VWS V14.01,2013-04-20 10:10:00,
2013-04-20 03:11:00,53.9,47.5,29.88,ESE,113,0.0,0.0,79,0.00,,,0.00,VWS V14.01,2013-04-20 10:11:00,
2013-04-20 03:12:00,53.8,47.5,29.88,ESE,113,0.0,0.0,79,0.00,,,0.00,VWS V14.01,2013-04-20 10:12:00,
2013-04-20 03:14:00,53.7,47.3,29.88,ESE,113,0.0,0.0,79,0.00,,,0.00,VWS V14.01,2013-04-20 10:14:00,
2013-04-20 03:15:00,53.7,47.3,29.88,ESE,113,0.0,0.0,79,0.00,,,0.00,VWS V14.01,2013-04-20 10:15:00,
2013-04-20 03:16:00,53.6,47.3,29.88,ESE,113,0.0,0.0,79,0.00,,,0.00,VWS V14.01,2013-04-20 10:16:00,
2013-04-20 03:17:00,53.6,47.3,29.88,ESE,113,0.0,0.0,79,0.00,,,0.00,VWS V14.01,2013-04-20 10:17:00,
2013-04-20 03:21:00,53.6,47.6,29.88,ESE,113,0.0,0.0,80,0.00,,,0.00,VWS V14.01,2013-04-20 10:21:00,
2013-04-20 03:22:00,53.6,47.6,29.88,ESE,113,0.0,0.0,80,0.00,,,0.00,VWS V14.01,2013-04-20 10:22:00,
2013-04-20 03:24:00,53.7,47.7,29.88,ESE,113,0.0,0.0,80,0.00,,,0.00,VWS V14.01,2013-04-20 10:24:00,
2013-04-20 03:26:00,53.7,47.7,29.88,ESE,113,0.0,0.0,80,0.00,,,0.00,VWS V14.01,2013-04-20 10:26:00,
2013-04-20 03:28:00,53.6,47.6,29.88,ESE,113,0.0,0.0,80,0.00,,,0.00,VWS V14.01,2013-04-20 10:28:00,
2013-04-20 03:30:00,53.6,47.6,29.88,ESE,113,0.0,1.0,80,0.00,,,0.00,VWS V14.01,2013-04-20 10:30:00,
2013-04-20 03:31:00,53.6,47.6,29.88,ESE,113,0.0,0.0,80,0.00,,,0.00,VWS V14.01,2013-04-20 10:31:00,
2013-04-20 03:33:00,53.7,47.7,29.88,ESE,113,0.0,0.0,80,0.00,,,0.00,VWS V14.01,2013-04-20 10:33:00,
2013-04-20 03:35:00,53.7,47.7,29.88,ESE,113,0.0,0.0,80,0.00,,,0.00,VWS V14.01,2013-04-20 10:35:00,
2013-04-20 03:36:00,53.7,47.3,29.88,ESE,113,0.0,1.0,79,0.00,,,0.00,VWS V14.01,2013-04-20 10:36:00,
2013-04-20 03:38:00,53.5,47.2,29.88,ESE,113,0.0,0.0,79,0.00,,,0.00,VWS V14.01,2013-04-20 10:38:00,
2013-04-20 03:40:00,53.3,47.0,29.88,ESE,113,0.0,0.0,79,0.00,,,0.00,VWS V14.01,2013-04-20 10:40:00,
2013-04-20 03:41:00,53.2,46.9,29.88,ESE,113,0.0,0.0,79,0.00,,,0.00,VWS V14.01,2013-04-20 10:41:00,
2013-04-20 03:42:00,53.2,47.2,29.88,ESE,113,0.0,0.0,80,0.00,,,0.00,VWS V14.01,2013-04-20 10:42:00,
2013-04-20 03:45:00,53.1,47.1,29.87,ESE,113,0.0,0.0,80,0.00,,,0.00,VWS V14.01,2013-04-20 10:45:00,
2013-04-20 03:47:00,53.0,47.0,29.87,ESE,113,0.0,0.0,80,0.00,,,0.00,VWS V14.01,2013-04-20 10:47:00,
2013-04-20 03:48:00,53.0,47.0,29.87,ESE,113,0.0,0.0,80,0.00,,,0.00,VWS V14.01,2013-04-20 10:48:00,
2013-04-20 03:49:00,53.0,47.0,29.87,ESE,113,0.0,0.0,80,0.00,,,0.00,VWS V14.01,2013-04-20 10:49:00,
2013-04-20 03:50:00,53.0,47.0,29.87,ESE,113,0.0,0.0,80,0.00,,,0.00,VWS V14.01,2013-04-20 10:50:00,
2013-04-20 03:52:00,53.0,47.0,29.87,ESE,113,0.0,0.0,80,0.00,,,0.00,VWS V14.01,2013-04-20 10:52:00,
2013-04-20 03:54:00,52.9,46.9,29.87,ESE,113,0.0,0.0,80,0.00,,,0.00,VWS V14.01,2013-04-20 10:54:00,
2013-04-20 03:55:00,52.8,46.8,29.87,ESE,113,0.0,0.0,80,0.00,,,0.00,VWS V14.01,2013-04-20 10:55:00,
2013-04-20 03:56:00,52.7,46.7,29.87,ESE,113,0.0,0.0,80,0.00,,,0.00,VWS V14.01,2013-04-20 10:56:00,
2013-04-20 03:57:00,52.7,46.7,29.87,ESE,113,0.0,0.0,80,0.00,,,0.00,VWS V14.01,2013-04-20 10:57:00,
2013-04-20 04:00:00,52.6,46.9,29.87,ESE,113,0.0,0.0,81,0.00,,,0.00,VWS V14.01,2013-04-20 11:00:00,
2013-04-20 04:02:00,52.5,46.5,29.87,ESE,113,0.0,0.0,80,0.00,,,0.00,VWS V14.01,2013-04-20 11:02:00,
2013-04-20 04:03:00,52.5,46.5,29.87,ESE,113,0.0,0.0,80,0.00,,,0.00,VWS V14.01,2013-04-20 11:03:00,
2013-04-20 04:04:00,52.4,46.8,29.87,ESE,113,0.0,0.0,81,0.00,,,0.00,VWS V14.01,2013-04-20 11:04:00,
2013-04-20 04:05:00,52.4,46.8,29.87,ESE,113,1.0,1.0,81,0.00,,,0.00,VWS V14.01,2013-04-20 11:05:00,
2013-04-20 04:07:00,52.4,46.8,29.87,ESE,108,1.0,1.0,81,0.00,,,0.00,VWS V14.01,2013-04-20 11:07:00,
2013-04-20 04:09:00,52.3,46.3,29.87,ESE,107,0.0,0.0,80,0.00,,,0.00,VWS V14.01,2013-04-20 11:09:00,
2013-04-20 04:12:00,52.2,46.2,29.87,ESE,108,0.0,0.0,80,0.00,,,0.00,VWS V14.01,2013-04-20 11:12:00,
2013-04-20 04:13:00,52.1,46.1,29.87,ESE,107,0.0,0.0,80,0.00,,,0.00,VWS V14.01,2013-04-20 11:13:00,
2013-04-20 04:14:00,52.1,45.8,29.87,ESE,107,0.0,0.0,79,0.00,,,0.00,VWS V14.01,2013-04-20 11:14:00,
2013-04-20 04:16:00,51.9,45.6,29.87,ESE,107,0.0,0.0,79,0.00,,,0.00,VWS V14.01,2013-04-20 11:16:00,
2013-04-20 04:19:00,51.6,45.3,29.87,ESE,107,0.0,0.0,79,0.00,,,0.00,VWS V14.01,2013-04-20 11:19:00,
2013-04-20 04:20:00,51.6,45.3,29.87,ESE,107,0.0,0.0,79,0.00,,,0.00,VWS V14.01,2013-04-20 11:20:00,
2013-04-20 04:21:00,51.6,45.3,29.87,ESE,107,0.0,0.0,79,0.00,,,0.00,VWS V14.01,2013-04-20 11:21:00,
2013-04-20 04:22:00,51.6,45.3,29.87,ESE,107,0.0,0.0,79,0.00,,,0.00,VWS V14.01,2013-04-20 11:22:00,
2013-04-20 04:23:00,51.6,45.3,29.87,ESE,107,0.0,0.0,79,0.00,,,0.00,VWS V14.01,2013-04-20 11:23:00,
2013-04-20 04:25:00,51.4,44.8,29.87,ESE,107,0.0,0.0,78,0.00,,,0.00,VWS V14.01,2013-04-20 11:25:00,
2013-04-20 04:27:00,51.4,44.8,29.87,ESE,108,0.0,0.0,78,0.00,,,0.00,VWS V14.01,2013-04-20 11:27:00,
2013-04-20 04:28:00,51.3,44.3,29.87,ESE,107,0.0,0.0,77,0.00,,,0.00,VWS V14.01,2013-04-20 11:28:00,
2013-04-20 04:30:00,51.3,44.3,29.87,ESE,107,0.0,0.0,77,0.00,,,0.00,VWS V14.01,2013-04-20 11:30:00,
2013-04-20 04:31:00,51.3,44.7,29.87,ESE,107,0.0,0.0,78,0.00,,,0.00,VWS V14.01,2013-04-20 11:31:00,
2013-04-20 04:34:00,51.5,44.5,29.87,ESE,107,0.0,0.0,77,0.00,,,0.00,VWS V14.01,2013-04-20 11:34:00,
2013-04-20 04:36:00,51.6,44.6,29.87,ESE,107,0.0,1.0,77,0.00,,,0.00,VWS V14.01,2013-04-20 11:36:00,
2013-04-20 04:37:00,51.7,44.7,29.87,ESE,107,0.0,0.0,77,0.00,,,0.00,VWS V14.01,2013-04-20 11:37:00,
2013-04-20 04:39:00,51.8,44.5,29.87,ESE,107,0.0,1.0,76,0.00,,,0.00,VWS V14.01,2013-04-20 11:39:00,
2013-04-20 04:41:00,51.9,44.6,29.86,ESE,107,1.0,1.0,76,0.00,,,0.00,VWS V14.01,2013-04-20 11:41:00,
2013-04-20 04:42:00,52.0,44.7,29.86,ESE,107,1.0,1.0,76,0.00,,,0.00,VWS V14.01,2013-04-20 11:42:00,
2013-04-20 04:43:00,52.0,44.7,29.86,ESE,107,0.0,0.0,76,0.00,,,0.00,VWS V14.01,2013-04-20 11:43:00,
2013-04-20 04:45:00,52.1,44.4,29.87,ESE,108,0.0,1.0,75,0.00,,,0.00,VWS V14.01,2013-04-20 11:45:00,
2013-04-20 04:46:00,52.0,44.7,29.87,ESE,107,1.0,1.0,76,0.00,,,0.00,VWS V14.01,2013-04-20 11:46:00,
2013-04-20 04:48:00,52.1,44.8,29.86,ESE,107,0.0,0.0,76,0.00,,,0.00,VWS V14.01,2013-04-20 11:48:00,
2013-04-20 04:49:00,52.1,44.8,29.87,ESE,113,1.0,1.0,76,0.00,,,0.00,VWS V14.01,2013-04-20 11:49:00,
2013-04-20 04:50:00,52.0,44.7,29.86,ESE,113,0.0,0.0,76,0.00,,,0.00,VWS V14.01,2013-04-20 11:50:00,
2013-04-20 04:51:00,51.9,44.2,29.86,ESE,113,0.0,0.0,75,0.00,,,0.00,VWS V14.01,2013-04-20 11:51:00,
2013-04-20 04:52:00,51.9,44.2,29.86,ESE,113,1.0,1.0,75,0.00,,,0.00,VWS V14.01,2013-04-20 11:52:00,
2013-04-20 04:55:00,51.7,44.4,29.86,ESE,113,1.0,1.0,76,0.00,,,0.00,VWS V14.01,2013-04-20 11:55:00,
2013-04-20 04:57:00,51.7,44.4,29.86,ESE,113,1.0,1.0,76,0.00,,,0.00,VWS V14.01,2013-04-20 11:57:00,
2013-04-20 05:00:00,51.5,44.2,29.86,ESE,113,0.0,0.0,76,0.00,,,0.00,VWS V14.01,2013-04-20 12:00:00,
2013-04-20 05:02:00,51.4,44.1,29.86,ESE,113,0.0,0.0,76,0.00,,,0.00,VWS V14.01,2013-04-20 12:02:00,
2013-04-20 05:03:00,51.4,44.4,29.86,ESE,113,0.0,0.0,77,0.00,,,0.00,VWS V14.01,2013-04-20 12:03:00,
2013-04-20 05:04:00,51.4,44.4,29.86,ESE,113,1.0,1.0,77,0.00,,,0.00,VWS V14.01,2013-04-20 12:04:00,
2013-04-20 05:06:00,51.6,44.6,29.86,ESE,113,0.0,1.0,77,0.00,,,0.00,VWS V14.01,2013-04-20 12:06:00,
2013-04-20 05:07:00,51.6,44.6,29.86,ESE,113,0.0,0.0,77,0.00,,,0.00,VWS V14.01,2013-04-20 12:07:00,
2013-04-20 05:09:00,51.7,44.4,29.86,ESE,113,0.0,0.0,76,0.00,,,0.00,VWS V14.01,2013-04-20 12:09:00,
2013-04-20 05:12:00,51.8,44.5,29.86,ESE,113,0.0,0.0,76,0.00,,,0.00,VWS V14.01,2013-04-20 12:12:00,
2013-04-20 05:13:00,51.8,44.5,29.86,ESE,113,0.0,0.0,76,0.00,,,0.00,VWS V14.01,2013-04-20 12:13:00,
2013-04-20 05:15:00,51.8,44.5,29.86,ESE,113,0.0,0.0,76,0.00,,,0.00,VWS V14.01,2013-04-20 12:15:00,
2013-04-20 05:16:00,51.8,44.5,29.86,ESE,113,0.0,0.0,76,0.00,,,0.00,VWS V14.01,2013-04-20 12:16:00,
2013-04-20 05:18:00,51.9,44.6,29.86,ESE,113,0.0,0.0,76,0.00,,,0.00,VWS V14.01,2013-04-20 12:18:00,
2013-04-20 05:19:00,51.9,44.6,29.86,ESE,113,0.0,0.0,76,0.00,,,0.00,VWS V14.01,2013-04-20 12:19:00,
2013-04-20 05:21:00,51.8,44.5,29.86,ESE,113,0.0,0.0,76,0.00,,,0.00,VWS V14.01,2013-04-20 12:21:00,
2013-04-20 05:22:00,51.8,44.5,29.86,ESE,113,0.0,0.0,76,0.00,,,0.00,VWS V14.01,2013-04-20 12:22:00,
2013-04-20 05:25:00,51.7,44.0,29.86,ESE,113,0.0,0.0,75,0.00,,,0.00,VWS V14.01,2013-04-20 12:25:00,
2013-04-20 05:28:00,51.6,44.0,29.86,ESE,113,0.0,0.0,75,0.00,,,0.00,VWS V14.01,2013-04-20 12:28:00,
2013-04-20 05:29:00,51.5,43.8,29.86,ESE,113,0.0,0.0,75,0.00,,,0.00,VWS V14.01,2013-04-20 12:29:00,
2013-04-20 05:30:00,51.4,43.8,29.86,ESE,113,0.0,0.0,75,0.00,,,0.00,VWS V14.01,2013-04-20 12:30:00,
2013-04-20 05:31:00,51.4,44.1,29.86,ESE,113,0.0,0.0,76,0.00,,,0.00,VWS V14.01,2013-04-20 12:31:00,
2013-04-20 05:32:00,51.4,44.1,29.86,ESE,113,0.0,0.0,76,0.00,,,0.00,VWS V14.01,2013-04-20 12:32:00,
2013-04-20 05:36:00,51.3,44.3,29.86,ESE,113,0.0,0.0,77,0.00,,,0.00,VWS V14.01,2013-04-20 12:36:00,
2013-04-20 05:37:00,51.3,44.3,29.86,ESE,113,0.0,0.0,77,0.00,,,0.00,VWS V14.01,2013-04-20 12:37:00,
2013-04-20 05:38:00,51.2,44.2,29.86,ESE,113,0.0,0.0,77,0.00,,,0.00,VWS V14.01,2013-04-20 12:38:00,
2013-04-20 05:40:00,51.3,44.3,29.86,ESE,113,0.0,0.0,77,0.00,,,0.00,VWS V14.01,2013-04-20 12:40:00,
2013-04-20 05:42:00,51.3,44.3,29.86,ESE,113,0.0,1.0,77,0.00,,,0.00,VWS V14.01,2013-04-20 12:42:00,
2013-04-20 05:43:00,51.4,44.4,29.86,ESE,113,0.0,0.0,77,0.00,,,0.00,VWS V14.01,2013-04-20 12:43:00,
2013-04-20 05:46:00,51.4,44.4,29.86,ESE,113,0.0,0.0,77,0.00,,,0.00,VWS V14.01,2013-04-20 12:46:00,
2013-04-20 05:47:00,51.4,44.4,29.86,ESE,113,0.0,0.0,77,0.00,,,0.00,VWS V14.01,2013-04-20 12:47:00,
2013-04-20 05:49:00,51.5,44.5,29.86,ESE,113,0.0,0.0,77,0.00,,,0.00,VWS V14.01,2013-04-20 12:49:00,
2013-04-20 05:51:00,51.4,44.1,29.86,ESE,113,0.0,0.0,76,0.00,,,0.00,VWS V14.01,2013-04-20 12:51:00,
2013-04-20 05:55:00,51.4,44.1,29.86,ESE,113,0.0,0.0,76,0.00,,,0.00,VWS V14.01,2013-04-20 12:55:00,
2013-04-20 05:56:00,51.3,44.0,29.86,ESE,113,0.0,0.0,76,0.00,,,0.00,VWS V14.01,2013-04-20 12:56:00,
2013-04-20 05:57:00,51.3,44.0,29.86,ESE,113,0.0,0.0,76,0.00,,,0.00,VWS V14.01,2013-04-20 12:57:00,
2013-04-20 05:58:00,51.2,43.9,29.86,ESE,113,0.0,0.0,76,0.00,,,0.00,VWS V14.01,2013-04-20 12:58:00,
2013-04-20 06:01:00,51.0,44.0,29.86,ESE,113,0.0,0.0,77,0.00,,,0.00,VWS V14.01,2013-04-20 13:01:00,
2013-04-20 06:02:00,51.0,44.0,29.86,ESE,113,0.0,0.0,77,0.00,,,0.00,VWS V14.01,2013-04-20 13:02:00,
2013-04-20 06:07:00,50.7,43.8,29.86,ESE,113,0.0,0.0,77,0.00,,,0.00,VWS V14.01,2013-04-20 13:07:00,
2013-04-20 06:08:00,50.7,44.1,29.86,ESE,113,0.0,0.0,78,0.00,,,0.00,VWS V14.01,2013-04-20 13:08:00,
2013-04-20 06:09:00,50.6,44.0,29.86,ESE,113,0.0,0.0,78,0.00,,,0.00,VWS V14.01,2013-04-20 13:09:00,
2013-04-20 06:10:00,50.6,44.0,29.86,ESE,113,0.0,1.0,78,0.00,,,0.00,VWS V14.01,2013-04-20 13:10:00,
2013-04-20 06:13:00,50.7,44.4,29.86,ESE,113,0.0,0.0,79,0.00,,,0.00,VWS V14.01,2013-04-20 13:13:00,
2013-04-20 06:14:00,50.7,44.4,29.86,ESE,113,0.0,1.0,79,0.00,,,0.00,VWS V14.01,2013-04-20 13:14:00,
2013-04-20 06:15:00,50.7,44.4,29.86,ESE,113,0.0,1.0,79,0.00,,,0.00,VWS V14.01,2013-04-20 13:15:00,
2013-04-20 06:17:00,50.8,44.5,29.86,ESE,113,0.0,0.0,79,0.00,,,0.00,VWS V14.01,2013-04-20 13:17:00,
2013-04-20 06:18:00,50.8,44.5,29.86,ESE,113,0.0,0.0,79,0.00,,,0.00,VWS V14.01,2013-04-20 13:18:00,
2013-04-20 06:20:00,50.8,44.5,29.86,ESE,113,0.0,0.0,79,0.00,,,0.00,VWS V14.01,2013-04-20 13:20:00,
2013-04-20 06:21:00,50.8,44.5,29.86,ESE,113,0.0,0.0,79,0.00,,,0.00,VWS V14.01,2013-04-20 13:21:00,
2013-04-20 06:22:00,50.8,44.5,29.86,ESE,113,0.0,0.0,79,0.00,,,0.00,VWS V14.01,2013-04-20 13:22:00,
2013-04-20 06:25:00,50.8,44.5,29.86,ESE,113,0.0,0.0,79,0.00,,,0.00,VWS V14.01,2013-04-20 13:25:00,
2013-04-20 06:26:00,50.8,44.5,29.86,ESE,113,0.0,0.0,79,0.00,,,0.00,VWS V14.01,2013-04-20 13:26:00,
2013-04-20 06:27:00,50.8,44.5,29.86,ESE,113,0.0,0.0,79,0.00,,,0.00,VWS V14.01,2013-04-20 13:27:00,
2013-04-20 06:32:00,50.8,44.5,29.86,ESE,113,0.0,0.0,79,0.00,,,0.00,VWS V14.01,2013-04-20 13:32:00,
2013-04-20 06:33:00,50.8,44.5,29.87,ESE,113,1.0,1.0,79,0.00,,,0.00,VWS V14.01,2013-04-20 13:33:00,
2013-04-20 06:34:00,50.8,44.5,29.87,ESE,113,1.0,1.0,79,0.00,,,0.00,VWS V14.01,2013-04-20 13:34:00,
2013-04-20 06:35:00,50.8,44.5,29.87,ESE,113,0.0,1.0,79,0.00,,,0.00,VWS V14.01,2013-04-20 13:35:00,
2013-04-20 06:37:00,50.9,44.6,29.87,ESE,113,0.0,0.0,79,0.00,,,0.00,VWS V14.01,2013-04-20 13:37:00,
2013-04-20 06:39:00,51.0,44.4,29.87,ESE,113,0.0,0.0,78,0.00,,,0.00,VWS V14.01,2013-04-20 13:39:00,
2013-04-20 06:40:00,51.0,44.4,29.87,ESE,113,0.0,1.0,78,0.00,,,0.00,VWS V14.01,2013-04-20 13:40:00,
2013-04-20 06:43:00,51.2,44.6,29.87,ESE,113,0.0,1.0,78,0.00,,,0.00,VWS V14.01,2013-04-20 13:43:00,
2013-04-20 06:44:00,51.4,44.8,29.87,ESE,113,0.0,1.0,78,0.00,,,0.00,VWS V14.01,2013-04-20 13:44:00,
2013-04-20 06:46:00,51.6,45.0,29.87,ESE,113,0.0,0.0,78,0.00,,,0.00,VWS V14.01,2013-04-20 13:46:00,
2013-04-20 06:48:00,51.9,45.3,29.87,ESE,113,0.0,0.0,78,0.00,,,0.00,VWS V14.01,2013-04-20 13:48:00,
2013-04-20 06:49:00,52.1,45.5,29.87,ESE,113,0.0,0.0,78,0.00,,,0.00,VWS V14.01,2013-04-20 13:49:00,
2013-04-20 06:51:00,52.5,45.5,29.87,ESE,113,0.0,0.0,77,0.00,,,0.00,VWS V14.01,2013-04-20 13:51:00,
2013-04-20 06:52:00,52.8,45.8,29.87,ESE,113,0.0,0.0,77,0.00,,,0.00,VWS V14.01,2013-04-20 13:52:00,
2013-04-20 06:53:00,53.0,46.0,29.87,ESE,113,1.0,1.0,77,0.00,,,0.00,VWS V14.01,2013-04-20 13:53:00,
2013-04-20 06:54:00,53.2,45.8,29.87,ESE,113,1.0,1.0,76,0.00,,,0.00,VWS V14.01,2013-04-20 13:54:00,
2013-04-20 06:58:00,54.2,46.1,29.87,ESE,113,0.0,0.0,74,0.00,,,0.00,VWS V14.01,2013-04-20 13:58:00,
2013-04-20 06:59:00,54.4,46.3,29.87,ESE,113,0.0,0.0,74,0.00,,,0.00,VWS V14.01,2013-04-20 13:59:00,
2013-04-20 07:00:00,54.7,46.6,29.87,ESE,113,0.0,0.0,74,0.00,,,0.00,VWS V14.01,2013-04-20 14:00:00,
2013-04-20 07:01:00,55.0,46.5,29.87,ESE,113,1.0,1.0,73,0.00,,,0.00,VWS V14.01,2013-04-20 14:01:00,
2013-04-20 07:03:00,55.5,46.6,29.87,ESE,113,1.0,1.0,72,0.00,,,0.00,VWS V14.01,2013-04-20 14:03:00,
2013-04-20 07:06:00,56.1,46.1,29.88,ESE,113,0.0,0.0,69,0.00,,,0.00,VWS V14.01,2013-04-20 14:06:00,
2013-04-20 07:08:00,56.6,46.6,29.88,ESE,113,0.0,0.0,69,0.00,,,0.00,VWS V14.01,2013-04-20 14:08:00,
2013-04-20 07:10:00,57.0,46.6,29.88,ESE,113,1.0,1.0,68,0.00,,,0.00,VWS V14.01,2013-04-20 14:10:00,
2013-04-20 07:12:00,57.0,46.6,29.88,ESE,113,0.0,0.0,68,0.00,,,0.00,VWS V14.01,2013-04-20 14:12:00,
2013-04-20 07:13:00,57.0,46.6,29.88,ESE,113,0.0,0.0,68,0.00,,,0.00,VWS V14.01,2013-04-20 14:13:00,
2013-04-20 07:15:00,56.8,46.4,29.88,ESE,113,0.0,0.0,68,0.00,,,0.00,VWS V14.01,2013-04-20 14:15:00,
2013-04-20 07:17:00,56.6,46.6,29.88,ESE,113,0.0,0.0,69,0.00,,,0.00,VWS V14.01,2013-04-20 14:17:00,
2013-04-20 07:18:00,56.5,46.5,29.88,ESE,113,0.0,0.0,69,0.00,,,0.00,VWS V14.01,2013-04-20 14:18:00,
2013-04-20 07:20:00,56.3,46.7,29.88,ESE,115,1.0,1.0,70,0.00,,,0.00,VWS V14.01,2013-04-20 14:20:00,
2013-04-20 07:21:00,56.2,46.6,29.88,ESE,114,0.0,1.0,70,0.00,,,0.00,VWS V14.01,2013-04-20 14:21:00,
2013-04-20 07:22:00,56.1,46.5,29.88,ESE,114,0.0,0.0,70,0.00,,,0.00,VWS V14.01,2013-04-20 14:22:00,
2013-04-20 07:23:00,55.9,46.3,29.88,ESE,114,1.0,1.0,70,0.00,,,0.00,VWS V14.01,2013-04-20 14:23:00,
2013-04-20 07:25:00,55.8,46.5,29.88,ESE,114,0.0,0.0,71,0.00,,,0.00,VWS V14.01,2013-04-20 14:25:00,
2013-04-20 07:26:00,55.8,46.5,29.88,ESE,115,0.0,0.0,71,0.00,,,0.00,VWS V14.01,2013-04-20 14:26:00,
2013-04-20 07:27:00,55.8,46.9,29.88,ESE,115,0.0,0.0,72,0.00,,,0.00,VWS V14.01,2013-04-20 14:27:00,
2013-04-20 07:29:00,56.0,47.1,29.88,ESE,115,0.0,0.0,72,0.00,,,0.00,VWS V14.01,2013-04-20 14:29:00,
2013-04-20 07:31:00,56.2,47.3,29.88,ESE,114,0.0,0.0,72,0.00,,,0.00,VWS V14.01,2013-04-20 14:31:00,
2013-04-20 07:32:00,56.3,47.4,29.88,ESE,115,0.0,0.0,72,0.00,,,0.00,VWS V14.01,2013-04-20 14:32:00,
2013-04-20 07:35:00,56.7,47.8,29.88,ESE,115,0.0,0.0,72,0.00,,,0.00,VWS V14.01,2013-04-20 14:35:00,
2013-04-20 07:36:00,56.9,48.0,29.88,ESE,114,0.0,0.0,72,0.00,,,0.00,VWS V14.01,2013-04-20 14:36:00,
2013-04-20 07:37:00,57.0,47.7,29.88,ESE,115,0.0,0.0,71,0.00,,,0.00,VWS V14.01,2013-04-20 14:37:00,
2013-04-20 07:39:00,57.5,48.2,29.88,ESE,115,0.0,0.0,71,0.00,,,0.00,VWS V14.01,2013-04-20 14:39:00,
2013-04-20 07:42:00,58.4,48.3,29.88,ESE,115,0.0,0.0,69,0.00,,,0.00,VWS V14.01,2013-04-20 14:42:00,
2013-04-20 07:43:00,58.5,48.0,29.88,ESE,114,0.0,0.0,68,0.00,,,0.00,VWS V14.01,2013-04-20 14:43:00,
2013-04-20 07:44:00,58.5,47.6,29.88,ESE,115,0.0,0.0,67,0.00,,,0.00,VWS V14.01,2013-04-20 14:44:00,
2013-04-20 07:45:00,58.6,48.1,29.88,ESE,114,0.0,0.0,68,0.00,,,0.00,VWS V14.01,2013-04-20 14:45:00,
2013-04-20 07:46:00,58.6,48.1,29.88,ESE,115,0.0,1.0,68,0.00,,,0.00,VWS V14.01,2013-04-20 14:46:00,
2013-04-20 07:47:00,58.6,47.7,29.88,ESE,115,0.0,0.0,67,0.00,,,0.00,VWS V14.01,2013-04-20 14:47:00,
2013-04-20 07:51:00,59.0,48.1,29.88,ESE,115,0.0,0.0,67,0.00,,,0.00,VWS V14.01,2013-04-20 14:51:00,
2013-04-20 07:52:00,59.0,48.1,29.88,ESE,115,0.0,0.0,67,0.00,,,0.00,VWS V14.01,2013-04-20 14:52:00,
2013-04-20 07:56:00,59.3,48.4,29.89,WSW,248,1.0,1.0,67,0.00,,,0.00,VWS V14.01,2013-04-20 14:56:00,
2013-04-20 07:57:00,59.4,48.5,29.89,WSW,249,1.0,1.0,67,0.00,,,0.00,VWS V14.01,2013-04-20 14:57:00,
2013-04-20 07:58:00,59.4,48.5,29.89,WSW,249,0.0,1.0,67,0.00,,,0.00,VWS V14.01,2013-04-20 14:58:00,
2013-04-20 07:59:00,59.5,48.5,29.89,WSW,253,1.0,1.0,67,0.00,,,0.00,VWS V14.01,2013-04-20 14:59:00,
2013-04-20 08:03:00,59.7,48.7,29.89,WSW,257,1.0,1.0,67,0.00,,,0.00,VWS V14.01,2013-04-20 15:03:00,
2013-04-20 08:04:00,59.7,48.7,29.89,WSW,256,1.0,1.0,67,0.00,,,0.00,VWS V14.01,2013-04-20 15:04:00,
2013-04-20 08:08:00,59.9,48.9,29.89,WSW,257,1.0,1.0,67,0.00,,,0.00,VWS V14.01,2013-04-20 15:08:00,
2013-04-20 08:09:00,59.9,48.9,29.89,WSW,257,1.0,1.0,67,0.00,,,0.00,VWS V14.01,2013-04-20 15:09:00,
2013-04-20 08:10:00,60.0,49.0,29.89,West,263,2.0,2.0,67,0.00,,,0.00,VWS V14.01,2013-04-20 15:10:00,
2013-04-20 08:11:00,60.1,49.1,29.89,WSW,246,1.0,2.0,67,0.00,,,0.00,VWS V14.01,2013-04-20 15:11:00,
2013-04-20 08:13:00,60.3,49.7,29.89,WSW,245,0.0,0.0,68,0.00,,,0.00,VWS V14.01,2013-04-20 15:13:00,
2013-04-20 08:16:00,60.9,49.9,29.89,WSW,246,1.0,1.0,67,0.00,,,0.00,VWS V14.01,2013-04-20 15:16:00,
2013-04-20 08:17:00,61.1,49.7,29.89,West,264,2.0,2.0,66,0.00,,,0.00,VWS V14.01,2013-04-20 15:17:00,
2013-04-20 08:18:00,61.1,49.7,29.89,West,264,1.0,2.0,66,0.00,,,0.00,VWS V14.01,2013-04-20 15:18:00,
2013-04-20 08:19:00,61.2,49.8,29.89,WNW,298,1.0,1.0,66,0.00,,,0.00,VWS V14.01,2013-04-20 15:19:00,
2013-04-20 08:20:00,61.3,50.3,29.89,WNW,297,1.0,1.0,67,0.00,,,0.00,VWS V14.01,2013-04-20 15:20:00,
2013-04-20 08:21:00,61.4,50.4,29.89,WNW,298,0.0,1.0,67,0.00,,,0.00,VWS V14.01,2013-04-20 15:21:00,
2013-04-20 08:23:00,61.7,50.6,29.89,West,263,1.0,1.0,67,0.00,,,0.00,VWS V14.01,2013-04-20 15:23:00,
2013-04-20 08:24:00,61.8,50.3,29.89,West,263,0.0,1.0,66,0.00,,,0.00,VWS V14.01,2013-04-20 15:24:00,
2013-04-20 08:27:00,62.3,50.8,29.89,West,263,1.0,1.0,66,0.00,,,0.00,VWS V14.01,2013-04-20 15:27:00,
2013-04-20 08:28:00,62.4,50.1,29.89,West,271,1.0,1.0,64,0.00,,,0.00,VWS V14.01,2013-04-20 15:28:00,
2013-04-20 08:29:00,62.4,50.1,29.89,West,271,1.0,1.0,64,0.00,,,0.00,VWS V14.01,2013-04-20 15:29:00,
2013-04-20 08:32:00,62.8,50.5,29.89,West,271,0.0,0.0,64,0.00,,,0.00,VWS V14.01,2013-04-20 15:32:00,
2013-04-20 08:35:00,63.6,49.5,29.89,ESE,109,2.0,2.0,60,0.00,,,0.00,VWS V14.01,2013-04-20 15:35:00,
2013-04-20 08:37:00,63.8,48.8,29.89,East,80,1.0,2.0,58,0.00,,,0.00,VWS V14.01,2013-04-20 15:37:00,
2013-04-20 08:38:00,63.9,48.8,29.89,ESE,121,1.0,2.0,58,0.00,,,0.00,VWS V14.01,2013-04-20 15:38:00,
2013-04-20 08:39:00,64.0,48.9,29.89,East,101,1.0,2.0,58,0.00,,,0.00,VWS V14.01,2013-04-20 15:39:00,
2013-04-20 08:40:00,64.1,48.6,29.89,East,94,1.0,2.0,57,0.00,,,0.00,VWS V14.01,2013-04-20 15:40:00,
2013-04-20 08:41:00,64.1,48.6,29.89,East,96,2.0,3.0,57,0.00,,,0.00,VWS V14.01,2013-04-20 15:41:00,
2013-04-20 08:43:00,64.3,47.8,29.89,ESE,112,3.0,3.0,55,0.00,,,0.00,VWS V14.01,2013-04-20 15:43:00,
2013-04-20 08:44:00,64.4,47.4,29.89,SSE,150,2.0,4.0,54,0.00,,,0.00,VWS V14.01,2013-04-20 15:44:00,
2013-04-20 08:48:00,65.0,47.0,29.89,ESE,120,1.0,2.0,52,0.00,,,0.00,VWS V14.01,2013-04-20 15:48:00,
2013-04-20 08:49:00,65.0,47.5,29.89,East,95,0.0,1.0,53,0.00,,,0.00,VWS V14.01,2013-04-20 15:49:00,
2013-04-20 08:50:00,65.1,46.5,29.89,SSE,155,2.0,3.0,51,0.00,,,0.00,VWS V14.01,2013-04-20 15:50:00,
2013-04-20 08:51:00,65.1,46.0,29.89,South,172,0.0,3.0,50,0.00,,,0.00,VWS V14.01,2013-04-20 15:51:00,
2013-04-20 08:54:00,65.5,45.8,29.89,SSW,200,1.0,2.0,49,0.00,,,0.00,VWS V14.01,2013-04-20 15:54:00,
2013-04-20 08:56:00,65.8,46.1,29.89,SE,133,1.0,1.0,49,0.00,,,0.00,VWS V14.01,2013-04-20 15:56:00,
2013-04-20 08:57:00,66.0,46.3,29.89,ESE,117,1.0,2.0,49,0.00,,,0.00,VWS V14.01,2013-04-20 15:57:00,
2013-04-20 08:58:00,66.1,45.9,29.89,SE,124,1.0,1.0,48,0.00,,,0.00,VWS V14.01,2013-04-20 15:58:00,
2013-04-20 09:00:00,66.6,46.3,29.89,ESE,113,2.0,2.0,48,0.00,,,0.00,VWS V14.01,2013-04-20 16:00:00,
2013-04-20 09:03:00,67.2,44.6,29.89,SE,141,2.0,3.0,44,0.00,,,0.00,VWS V14.01,2013-04-20 16:03:00,
2013-04-20 09:04:00,67.4,44.8,29.89,ENE,75,3.0,3.0,44,0.00,,,0.00,VWS V14.01,2013-04-20 16:04:00,
2013-04-20 09:05:00,67.5,44.8,29.89,SSE,153,3.0,3.0,44,0.00,,,0.00,VWS V14.01,2013-04-20 16:05:00,
2013-04-20 09:08:00,67.8,43.3,29.89,East,98,3.0,4.0,41,0.00,,,0.00,VWS V14.01,2013-04-20 16:08:00,
2013-04-20 09:09:00,67.7,43.2,29.89,East,101,4.0,5.0,41,0.00,,,0.00,VWS V14.01,2013-04-20 16:09:00,
2013-04-20 09:11:00,67.7,43.2,29.88,SSE,165,3.0,5.0,41,0.00,,,0.00,VWS V14.01,2013-04-20 16:11:00,
2013-04-20 09:13:00,67.7,42.5,29.88,ESE,111,1.0,2.0,40,0.00,,,0.00,VWS V14.01,2013-04-20 16:13:00,
2013-04-20 09:14:00,67.8,42.6,29.88,SE,127,1.0,2.0,40,0.00,,,0.00,VWS V14.01,2013-04-20 16:14:00,
2013-04-20 09:15:00,67.9,42.7,29.88,South,177,1.0,1.0,40,0.00,,,0.00,VWS V14.01,2013-04-20 16:15:00,
2013-04-20 09:17:00,68.2,43.0,29.88,ESE,120,1.0,2.0,40,0.00,,,0.00,VWS V14.01,2013-04-20 16:17:00,
2013-04-20 09:19:00,68.4,43.8,29.89,ESE,106,3.0,3.0,41,0.00,,,0.00,VWS V14.01,2013-04-20 16:19:00,
2013-04-20 09:20:00,68.5,43.9,29.89,SSE,153,2.0,3.0,41,0.00,,,0.00,VWS V14.01,2013-04-20 16:20:00,
2013-04-20 09:22:00,68.6,44.0,29.89,South,176,0.0,4.0,41,0.00,,,0.00,VWS V14.01,2013-04-20 16:22:00,
2013-04-20 09:23:00,68.7,44.1,29.89,SSW,200,1.0,1.0,41,0.00,,,0.00,VWS V14.01,2013-04-20 16:23:00,
2013-04-20 09:25:00,68.7,43.4,29.89,WSW,245,3.0,5.0,40,0.00,,,0.00,VWS V14.01,2013-04-20 16:25:00,
2013-04-20 09:27:00,68.6,43.3,29.89,SSW,205,3.0,5.0,40,0.00,,,0.00,VWS V14.01,2013-04-20 16:27:00,
2013-04-20 09:28:00,68.6,43.3,29.89,SSW,208,3.0,4.0,40,0.00,,,0.00,VWS V14.01,2013-04-20 16:28:00,
2013-04-20 09:29:00,68.6,43.3,29.89,SSW,200,4.0,4.0,40,0.00,,,0.00,VWS V14.01,2013-04-20 16:29:00,
2013-04-20 09:32:00,68.7,43.4,29.88,WSW,250,1.0,2.0,40,0.00,,,0.00,VWS V14.01,2013-04-20 16:32:00,
2013-04-20 09:33:00,68.8,43.5,29.89,WSW,248,3.0,4.0,40,0.00,,,0.00,VWS V14.01,2013-04-20 16:33:00,
2013-04-20 09:34:00,68.8,42.9,29.89,SW,231,2.0,6.0,39,0.00,,,0.00,VWS V14.01,2013-04-20 16:34:00,
2013-04-20 09:35:00,68.7,42.8,29.89,WSW,254,1.0,2.0,39,0.00,,,0.00,VWS V14.01,2013-04-20 16:35:00,
2013-04-20 09:38:00,68.7,44.1,29.89,SW,217,2.0,2.0,41,0.00,,,0.00,VWS V14.01,2013-04-20 16:38:00,
2013-04-20 09:40:00,69.0,44.3,29.89,West,271,2.0,3.0,41,0.00,,,0.00,VWS V14.01,2013-04-20 16:40:00,
2013-04-20 09:43:00,69.3,43.3,29.89,SSE,166,0.0,2.0,39,0.00,,,0.00,VWS V14.01,2013-04-20 16:43:00,
2013-04-20 09:44:00,69.5,42.8,29.89,WNW,301,1.0,1.0,38,0.00,,,0.00,VWS V14.01,2013-04-20 16:44:00,
2013-04-20 09:45:00,69.8,42.4,29.88,WSW,239,2.0,4.0,37,0.00,,,0.00,VWS V14.01,2013-04-20 16:45:00,
2013-04-20 09:47:00,70.3,42.8,29.89,WSW,243,1.0,2.0,37,0.00,,,0.00,VWS V14.01,2013-04-20 16:47:00,
2013-04-20 09:49:00,70.6,42.4,29.89,East,94,2.0,3.0,36,0.00,,,0.00,VWS V14.01,2013-04-20 16:49:00,
2013-04-20 09:50:00,70.8,42.5,29.88,South,186,2.0,3.0,36,0.00,,,0.00,VWS V14.01,2013-04-20 16:50:00,
2013-04-20 09:53:00,70.9,41.9,29.88,WSW,238,1.0,2.0,35,0.00,,,0.00,VWS V14.01,2013-04-20 16:53:00,
2013-04-20 09:55:00,71.2,42.9,29.88,SW,236,2.0,3.0,36,0.00,,,0.00,VWS V14.01,2013-04-20 16:55:00,
2013-04-20 09:56:00,71.2,42.2,29.88,WSW,255,2.0,2.0,35,0.00,,,0.00,VWS V14.01,2013-04-20 16:56:00,
2013-04-20 09:58:00,71.2,42.2,29.88,SW,229,2.0,2.0,35,0.00,,,0.00,VWS V14.01,2013-04-20 16:58:00,
2013-04-20 09:59:00,71.4,42.3,29.88,SW,224,2.0,3.0,35,0.00,,,0.00,VWS V14.01,2013-04-20 16:59:00,
2013-04-20 10:01:00,71.5,41.7,29.88,SW,221,1.0,3.0,34,0.00,,,0.00,VWS V14.01,2013-04-20 17:01:00,
2013-04-20 10:02:00,71.5,41.7,29.88,SW,218,3.0,3.0,34,0.00,,,0.00,VWS V14.01,2013-04-20 17:02:00,
2013-04-20 10:04:00,71.5,41.7,29.88,WSW,250,1.0,3.0,34,0.00,,,0.00,VWS V14.01,2013-04-20 17:04:00,
2013-04-20 10:05:00,71.5,41.7,29.88,West,259,1.0,2.0,34,0.00,,,0.00,VWS V14.01,2013-04-20 17:05:00,
2013-04-20 10:06:00,71.6,42.5,29.88,SSE,150,1.0,1.0,35,0.00,,,0.00,VWS V14.01,2013-04-20 17:06:00,
2013-04-20 10:09:00,72.0,42.1,29.88,WSW,248,1.0,3.0,34,0.00,,,0.00,VWS V14.01,2013-04-20 17:09:00,
2013-04-20 10:11:00,72.1,40.7,29.88,SE,146,1.0,2.0,32,0.00,,,0.00,VWS V14.01,2013-04-20 17:11:00,
2013-04-20 10:14:00,72.6,41.1,29.88,SE,140,0.0,1.0,32,0.00,,,0.00,VWS V14.01,2013-04-20 17:14:00,
2013-04-20 10:16:00,73.1,41.5,29.88,ENE,68,1.0,2.0,32,0.00,,,0.00,VWS V14.01,2013-04-20 17:16:00,
2013-04-20 10:17:00,73.1,40.7,29.88,ENE,71,1.0,3.0,31,0.00,,,0.00,VWS V14.01,2013-04-20 17:17:00,
2013-04-20 10:22:00,73.9,45.3,29.88,WSW,249,1.0,4.0,36,0.00,,,0.00,VWS V14.01,2013-04-20 17:22:00,
2013-04-20 10:23:00,73.8,45.2,29.88,WSW,243,3.0,3.0,36,0.00,,,0.00,VWS V14.01,2013-04-20 17:23:00,
2013-04-20 10:25:00,73.6,45.8,29.88,WSW,249,0.0,3.0,37,0.00,,,0.00,VWS V14.01,2013-04-20 17:25:00,
2013-04-20 10:26:00,73.6,45.0,29.88,WSW,245,0.0,0.0,36,0.00,,,0.00,VWS V14.01,2013-04-20 17:26:00,
2013-04-20 10:28:00,73.7,45.1,29.88,West,276,2.0,3.0,36,0.00,,,0.00,VWS V14.01,2013-04-20 17:28:00,
2013-04-20 10:30:00,73.9,46.0,29.88,NNW,345,2.0,3.0,37,0.00,,,0.00,VWS V14.01,2013-04-20 17:30:00,
2013-04-20 10:31:00,73.9,44.5,29.88,NW,325,0.0,2.0,35,0.00,,,0.00,VWS V14.01,2013-04-20 17:31:00,
2013-04-20 10:32:00,74.0,44.6,29.88,East,88,2.0,2.0,35,0.00,,,0.00,VWS V14.01,2013-04-20 17:32:00,
2013-04-20 10:33:00,74.0,44.6,29.88,NE,52,0.0,2.0,35,0.00,,,0.00,VWS V14.01,2013-04-20 17:33:00,
2013-04-20 10:36:00,74.0,43.9,29.88,NW,316,1.0,1.0,34,0.00,,,0.00,VWS V14.01,2013-04-20 17:36:00,
2013-04-20 10:37:00,74.1,43.2,29.88,NNE,26,1.0,1.0,33,0.00,,,0.00,VWS V14.01,2013-04-20 17:37:00,
2013-04-20 10:38:00,74.3,43.4,29.88,NW,319,1.0,2.0,33,0.00,,,0.00,VWS V14.01,2013-04-20 17:38:00,
2013-04-20 10:39:00,74.5,44.3,29.88,NNW,336,1.0,2.0,34,0.00,,,0.00,VWS V14.01,2013-04-20 17:39:00,
2013-04-20 10:42:00,74.8,46.1,29.88,West,280,2.0,3.0,36,0.00,,,0.00,VWS V14.01,2013-04-20 17:42:00,
2013-04-20 10:43:00,74.9,46.2,29.88,West,272,3.0,3.0,36,0.00,,,0.00,VWS V14.01,2013-04-20 17:43:00,
2013-04-20 10:45:00,74.7,46.0,29.88,NNW,345,2.0,4.0,36,0.00,,,0.00,VWS V14.01,2013-04-20 17:45:00,
2013-04-20 10:47:00,74.7,46.7,29.88,West,259,0.0,2.0,37,0.00,,,0.00,VWS V14.01,2013-04-20 17:47:00,
2013-04-20 10:48:00,74.7,46.7,29.88,NW,311,2.0,3.0,37,0.00,,,0.00,VWS V14.01,2013-04-20 17:48:00,
2013-04-20 10:50:00,74.9,46.2,29.88,NW,311,0.0,0.0,36,0.00,,,0.00,VWS V14.01,2013-04-20 17:50:00,
2013-04-20 10:53:00,75.3,45.8,29.88,WNW,297,1.0,2.0,35,0.00,,,0.00,VWS V14.01,2013-04-20 17:53:00,
2013-04-20 10:54:00,75.3,45.0,29.88,WNW,299,1.0,3.0,34,0.00,,,0.00,VWS V14.01,2013-04-20 17:54:00,
2013-04-20 10:56:00,75.3,42.6,29.87,West,270,1.0,2.0,31,0.00,,,0.00,VWS V14.01,2013-04-20 17:56:00,
2013-04-20 10:59:00,75.7,44.6,29.87,SW,236,1.0,1.0,33,0.00,,,0.00,VWS V14.01,2013-04-20 17:59:00,
2013-04-20 11:00:00,76.0,43.2,29.87,ESE,108,1.0,4.0,31,0.00,,,0.00,VWS V14.01,2013-04-20 18:00:00,
2013-04-20 11:01:00,76.1,42.5,29.87,East,87,0.0,2.0,30,0.00,,,0.00,VWS V14.01,2013-04-20 18:01:00,
2013-04-20 11:02:00,76.2,42.5,29.87,North,349,3.0,4.0,30,0.00,,,0.00,VWS V14.01,2013-04-20 18:02:00,
2013-04-20 11:04:00,76.3,42.6,29.87,NNW,343,1.0,1.0,30,0.00,,,0.00,VWS V14.01,2013-04-20 18:04:00,
2013-04-20 11:06:00,76.6,42.9,29.87,NNW,345,1.0,1.0,30,0.00,,,0.00,VWS V14.01,2013-04-20 18:06:00,
2013-04-20 11:07:00,76.7,43.0,29.87,NNE,25,1.0,2.0,30,0.00,,,0.00,VWS V14.01,2013-04-20 18:07:00,
2013-04-20 11:08:00,76.9,44.0,29.87,North,3,2.0,3.0,31,0.00,,,0.00,VWS V14.01,2013-04-20 18:08:00,
2013-04-20 11:09:00,77.0,44.1,29.87,NNE,16,0.0,3.0,31,0.00,,,0.00,VWS V14.01,2013-04-20 18:09:00,
2013-04-20 11:12:00,77.1,45.0,29.87,NW,316,0.0,0.0,32,0.00,,,0.00,VWS V14.01,2013-04-20 18:12:00,
2013-04-20 11:13:00,77.4,44.4,29.87,NW,316,0.0,1.0,31,0.00,,,0.00,VWS V14.01,2013-04-20 18:13:00,
2013-04-20 11:15:00,77.8,45.6,29.87,West,269,2.0,3.0,32,0.00,,,0.00,VWS V14.01,2013-04-20 18:15:00,
2013-04-20 11:16:00,78.0,45.8,29.87,NNE,20,2.0,2.0,32,0.00,,,0.00,VWS V14.01,2013-04-20 18:16:00,
2013-04-20 11:17:00,78.0,45.8,29.87,West,277,2.0,4.0,32,0.00,,,0.00,VWS V14.01,2013-04-20 18:17:00,
2013-04-20 11:18:00,78.1,46.7,29.87,North,8,1.0,1.0,33,0.00,,,0.00,VWS V14.01,2013-04-20 18:18:00,
2013-04-20 11:20:00,78.3,46.0,29.87,SW,233,5.0,10.0,32,0.00,,,0.00,VWS V14.01,2013-04-20 18:20:00,
2013-04-20 11:23:00,78.0,45.8,29.87,WSW,257,3.0,3.0,32,0.00,,,0.00,VWS V14.01,2013-04-20 18:23:00,
2013-04-20 11:24:00,78.1,45.0,29.87,SW,229,2.0,5.0,31,0.00,,,0.00,VWS V14.01,2013-04-20 18:24:00,
2013-04-20 11:25:00,78.1,45.0,29.87,SW,232,4.0,6.0,31,0.00,,,0.00,VWS V14.01,2013-04-20 18:25:00,
2013-04-20 11:28:00,78.0,45.8,29.87,SW,219,4.0,4.0,32,0.00,,,0.00,VWS V14.01,2013-04-20 18:28:00,
2013-04-20 11:29:00,78.1,45.0,29.87,SSW,203,5.0,5.0,31,0.00,,,0.00,VWS V14.01,2013-04-20 18:29:00,
2013-04-20 11:30:00,78.1,45.9,29.87,South,173,4.0,5.0,32,0.00,,,0.00,VWS V14.01,2013-04-20 18:30:00,
2013-04-20 11:33:00,78.2,45.1,29.87,WSW,246,3.0,3.0,31,0.00,,,0.00,VWS V14.01,2013-04-20 18:33:00,
2013-04-20 11:34:00,78.3,45.2,29.87,SW,236,2.0,3.0,31,0.00,,,0.00,VWS V14.01,2013-04-20 18:34:00,
2013-04-20 11:36:00,78.3,45.2,29.86,SW,218,4.0,4.0,31,0.00,,,0.00,VWS V14.01,2013-04-20 18:36:00,
2013-04-20 11:37:00,78.2,44.3,29.86,SW,225,2.0,2.0,30,0.00,,,0.00,VWS V14.01,2013-04-20 18:37:00,
2013-04-20 11:38:00,78.2,45.1,29.86,WNW,285,1.0,1.0,31,0.00,,,0.00,VWS V14.01,2013-04-20 18:38:00,
2013-04-20 11:39:00,78.3,45.2,29.86,WNW,282,1.0,1.0,31,0.00,,,0.00,VWS V14.01,2013-04-20 18:39:00,
2013-04-20 11:41:00,78.4,44.4,29.86,SW,225,7.0,7.0,30,0.00,,,0.00,VWS V14.01,2013-04-20 18:41:00,
2013-04-20 11:42:00,78.4,44.4,29.86,South,190,3.0,3.0,30,0.00,,,0.00,VWS V14.01,2013-04-20 18:42:00,
2013-04-20 11:43:00,78.3,44.3,29.86,SSE,166,1.0,1.0,30,0.00,,,0.00,VWS V14.01,2013-04-20 18:43:00,
2013-04-20 11:45:00,78.3,44.3,29.86,SE,136,4.0,4.0,30,0.00,,,0.00,VWS V14.01,2013-04-20 18:45:00,
2013-04-20 11:47:00,78.3,43.5,29.86,WSW,246,2.0,5.0,29,0.00,,,0.00,VWS V14.01,2013-04-20 18:47:00,
2013-04-20 11:48:00,78.3,43.5,29.86,WNW,282,1.0,3.0,29,0.00,,,0.00,VWS V14.01,2013-04-20 18:48:00,
2013-04-20 11:50:00,78.3,43.5,29.86,SW,225,1.0,1.0,29,0.00,,,0.00,VWS V14.01,2013-04-20 18:50:00,
2013-04-20 11:52:00,78.3,44.3,29.86,SSW,200,3.0,3.0,30,0.00,,,0.00,VWS V14.01,2013-04-20 18:52:00,
2013-04-20 11:53:00,78.4,45.3,29.86,WSW,249,2.0,7.0,31,0.00,,,0.00,VWS V14.01,2013-04-20 18:53:00,
2013-04-20 11:55:00,78.3,45.2,29.86,WNW,291,2.0,3.0,31,0.00,,,0.00,VWS V14.01,2013-04-20 18:55:00,
2013-04-20 11:56:00,78.4,45.3,29.86,WSW,239,1.0,3.0,31,0.00,,,0.00,VWS V14.01,2013-04-20 18:56:00,
2013-04-20 11:58:00,78.7,44.7,29.86,SW,228,2.0,3.0,30,0.00,,,0.00,VWS V14.01,2013-04-20 18:58:00,
2013-04-20 11:59:00,78.9,44.9,29.86,SW,232,6.0,7.0,30,0.00,,,0.00,VWS V14.01,2013-04-20 18:59:00,
2013-04-20 12:01:00,79.0,45.0,29.86,SW,231,2.0,4.0,30,0.00,,,0.00,VWS V14.01,2013-04-20 19:01:00,
2013-04-20 12:03:00,79.0,44.1,29.86,SW,215,3.0,6.0,29,0.00,,,0.00,VWS V14.01,2013-04-20 19:03:00,
2013-04-20 12:04:00,78.9,44.0,29.86,South,190,0.0,3.0,29,0.00,,,0.00,VWS V14.01,2013-04-20 19:04:00,
2013-04-20 12:05:00,79.1,44.2,29.86,WSW,243,4.0,4.0,29,0.00,,,0.00,VWS V14.01,2013-04-20 19:05:00,
2013-04-20 12:06:00,79.2,44.2,29.86,West,269,2.0,2.0,29,0.00,,,0.00,VWS V14.01,2013-04-20 19:06:00,
2013-04-20 12:09:00,79.2,44.2,29.86,SW,225,5.0,8.0,29,0.00,,,0.00,VWS V14.01,2013-04-20 19:09:00,
2013-04-20 12:10:00,79.2,44.2,29.86,SW,229,4.0,5.0,29,0.00,,,0.00,VWS V14.01,2013-04-20 19:10:00,
2013-04-20 12:11:00,79.3,44.3,29.86,SW,229,6.0,6.0,29,0.00,,,0.00,VWS V14.01,2013-04-20 19:11:00,
2013-04-20 12:12:00,79.2,44.2,29.86,WSW,252,5.0,7.0,29,0.00,,,0.00,VWS V14.01,2013-04-20 19:12:00,
2013-04-20 12:14:00,79.0,44.1,29.85,West,265,3.0,6.0,29,0.00,,,0.00,VWS V14.01,2013-04-20 19:14:00,
2013-04-20 12:16:00,78.8,43.9,29.85,WSW,239,5.0,6.0,29,0.00,,,0.00,VWS V14.01,2013-04-20 19:16:00,
2013-04-20 12:17:00,78.7,43.8,29.85,South,190,4.0,9.0,29,0.00,,,0.00,VWS V14.01,2013-04-20 19:17:00,
2013-04-20 12:18:00,78.5,43.6,29.85,SW,236,4.0,9.0,29,0.00,,,0.00,VWS V14.01,2013-04-20 19:18:00,
2013-04-20 12:21:00,78.5,43.6,29.85,SSW,200,4.0,6.0,29,0.00,,,0.00,VWS V14.01,2013-04-20 19:21:00,
2013-04-20 12:22:00,78.5,43.6,29.85,SW,221,3.0,6.0,29,0.00,,,0.00,VWS V14.01,2013-04-20 19:22:00,
2013-04-20 12:24:00,78.5,44.5,29.85,SW,236,2.0,2.0,30,0.00,,,0.00,VWS V14.01,2013-04-20 19:24:00,
2013-04-20 12:25:00,78.6,44.6,29.85,WSW,246,1.0,2.0,30,0.00,,,0.00,VWS V14.01,2013-04-20 19:25:00,
2013-04-20 12:27:00,79.1,44.2,29.85,SW,232,5.0,7.0,29,0.00,,,0.00,VWS V14.01,2013-04-20 19:27:00,
2013-04-20 12:29:00,79.2,45.1,29.85,West,271,3.0,4.0,30,0.00,,,0.00,VWS V14.01,2013-04-20 19:29:00,
2013-04-20 12:30:00,79.4,44.4,29.85,WSW,241,4.0,4.0,29,0.00,,,0.00,VWS V14.01,2013-04-20 19:30:00,
2013-04-20 12:31:00,79.5,44.5,29.85,West,259,4.0,4.0,29,0.00,,,0.00,VWS V14.01,2013-04-20 19:31:00,
2013-04-20 12:33:00,79.4,44.4,29.85,SSE,155,4.0,8.0,29,0.00,,,0.00,VWS V14.01,2013-04-20 19:33:00,
2013-04-20 12:34:00,79.3,44.3,29.85,SW,228,3.0,4.0,29,0.00,,,0.00,VWS V14.01,2013-04-20 19:34:00,
2013-04-20 12:36:00,79.4,43.5,29.85,WSW,246,6.0,8.0,28,0.00,,,0.00,VWS V14.01,2013-04-20 19:36:00,
2013-04-20 12:37:00,79.2,43.3,29.85,SSW,194,4.0,6.0,28,0.00,,,0.00,VWS V14.01,2013-04-20 19:37:00,
2013-04-20 12:38:00,79.0,43.2,29.85,SSW,203,6.0,7.0,28,0.00,,,0.00,VWS V14.01,2013-04-20 19:38:00,
2013-04-20 12:39:00,78.9,43.1,29.85,WSW,245,3.0,7.0,28,0.00,,,0.00,VWS V14.01,2013-04-20 19:39:00,
2013-04-20 12:41:00,79.1,42.3,29.85,SW,218,3.0,3.0,27,0.00,,,0.00,VWS V14.01,2013-04-20 19:41:00,
2013-04-20 12:43:00,79.4,41.6,29.85,SSW,208,4.0,4.0,26,0.00,,,0.00,VWS V14.01,2013-04-20 19:43:00,
2013-04-20 12:44:00,79.6,41.7,29.85,SW,224,3.0,8.0,26,0.00,,,0.00,VWS V14.01,2013-04-20 19:44:00,
2013-04-20 12:46:00,79.8,42.9,29.85,SW,221,7.0,8.0,27,0.00,,,0.00,VWS V14.01,2013-04-20 19:46:00,
2013-04-20 12:47:00,79.8,41.9,29.84,SE,135,2.0,3.0,26,0.00,,,0.00,VWS V14.01,2013-04-20 19:47:00,
2013-04-20 12:49:00,79.9,43.0,29.85,WSW,243,5.0,5.0,27,0.00,,,0.00,VWS V14.01,2013-04-20 19:49:00,
2013-04-20 12:51:00,79.7,42.8,29.84,SW,233,7.0,7.0,27,0.00,,,0.00,VWS V14.01,2013-04-20 19:51:00,
2013-04-20 12:53:00,79.4,42.5,29.85,SSW,210,3.0,6.0,27,0.00,,,0.00,VWS V14.01,2013-04-20 19:53:00,
2013-04-20 12:54:00,79.4,42.5,29.84,WSW,242,8.0,9.0,27,0.00,,,0.00,VWS V14.01,2013-04-20 19:54:00,
2013-04-20 12:55:00,79.1,43.2,29.85,SSW,212,5.0,5.0,28,0.00,,,0.00,VWS V14.01,2013-04-20 19:55:00,
2013-04-20 12:56:00,79.1,43.2,29.84,South,189,3.0,4.0,28,0.00,,,0.00,VWS V14.01,2013-04-20 19:56:00,
2013-04-20 12:58:00,79.1,43.2,29.85,SW,225,3.0,5.0,28,0.00,,,0.00,VWS V14.01,2013-04-20 19:58:00,
2013-04-20 13:00:00,79.0,43.2,29.85,SSW,207,6.0,7.0,28,0.00,,,0.00,VWS V14.01,2013-04-20 20:00:00,
2013-04-20 13:01:00,78.9,43.1,29.84,SSE,149,5.0,5.0,28,0.00,,,0.00,VWS V14.01,2013-04-20 20:01:00,
2013-04-20 13:02:00,78.8,43.0,29.84,SSW,203,4.0,6.0,28,0.00,,,0.00,VWS V14.01,2013-04-20 20:02:00,
2013-04-20 13:03:00,79.0,44.1,29.84,South,186,2.0,5.0,29,0.00,,,0.00,VWS V14.01,2013-04-20 20:03:00,
2013-04-20 13:04:00,79.1,44.2,29.84,West,277,4.0,6.0,29,0.00,,,0.00,VWS V14.01,2013-04-20 20:04:00,
2013-04-20 13:07:00,79.2,43.3,29.84,SSW,195,2.0,6.0,28,0.00,,,0.00,VWS V14.01,2013-04-20 20:07:00,
2013-04-20 13:09:00,79.3,43.4,29.84,South,188,5.0,7.0,28,0.00,,,0.00,VWS V14.01,2013-04-20 20:09:00,
2013-04-20 13:10:00,79.3,43.4,29.84,WNW,288,3.0,5.0,28,0.00,,,0.00,VWS V14.01,2013-04-20 20:10:00,
2013-04-20 13:11:00,79.4,43.5,29.84,South,190,7.0,10.0,28,0.00,,,0.00,VWS V14.01,2013-04-20 20:11:00,
2013-04-20 13:13:00,79.2,42.4,29.84,SSW,203,4.0,6.0,27,0.00,,,0.00,VWS V14.01,2013-04-20 20:13:00,
2013-04-20 13:16:00,79.2,44.2,29.84,South,181,2.0,4.0,29,0.00,,,0.00,VWS V14.01,2013-04-20 20:16:00,
2013-04-20 13:18:00,79.5,42.6,29.84,SSW,213,4.0,6.0,27,0.00,,,0.00,VWS V14.01,2013-04-20 20:18:00,
2013-04-20 13:20:00,79.6,43.7,29.84,WSW,245,4.0,8.0,28,0.00,,,0.00,VWS V14.01,2013-04-20 20:20:00,
2013-04-20 13:23:00,79.7,42.8,29.84,WSW,250,6.0,7.0,27,0.00,,,0.00,VWS V14.01,2013-04-20 20:23:00,
2013-04-20 13:25:00,80.0,42.1,29.84,SSW,202,4.0,7.0,26,0.00,,,0.00,VWS V14.01,2013-04-20 20:25:00,
2013-04-20 13:27:00,80.1,41.1,29.84,South,191,3.0,5.0,25,0.00,,,0.00,VWS V14.01,2013-04-20 20:27:00,
2013-04-20 13:29:00,80.2,41.2,29.84,West,276,5.0,6.0,25,0.00,,,0.00,VWS V14.01,2013-04-20 20:29:00,
2013-04-20 13:31:00,80.4,41.4,29.84,SW,221,7.0,8.0,25,0.00,,,0.00,VWS V14.01,2013-04-20 20:31:00,
2013-04-20 13:32:00,80.3,41.3,29.84,SW,215,4.0,7.0,25,0.00,,,0.00,VWS V14.01,2013-04-20 20:32:00,
2013-04-20 13:34:00,80.5,40.4,29.84,West,263,3.0,6.0,24,0.00,,,0.00,VWS V14.01,2013-04-20 20:34:00,
2013-04-20 13:35:00,80.5,41.5,29.83,WNW,300,3.0,6.0,25,0.00,,,0.00,VWS V14.01,2013-04-20 20:35:00,
2013-04-20 13:36:00,80.6,41.6,29.83,WSW,241,4.0,5.0,25,0.00,,,0.00,VWS V14.01,2013-04-20 20:36:00,
2013-04-20 13:37:00,80.6,42.6,29.84,South,183,5.0,6.0,26,0.00,,,0.00,VWS V14.01,2013-04-20 20:37:00,
2013-04-20 13:41:00,80.6,43.6,29.83,North,9,0.0,2.0,27,0.00,,,0.00,VWS V14.01,2013-04-20 20:41:00,
2013-04-20 13:42:00,80.7,44.6,29.83,WNW,290,1.0,1.0,28,0.00,,,0.00,VWS V14.01,2013-04-20 20:42:00,
2013-04-20 13:43:00,81.0,44.9,29.83,SW,234,3.0,3.0,28,0.00,,,0.00,VWS V14.01,2013-04-20 20:43:00,
2013-04-20 13:46:00,81.8,44.6,29.83,SE,129,2.0,5.0,27,0.00,,,0.00,VWS V14.01,2013-04-20 20:46:00,
2013-04-20 13:47:00,82.1,43.8,29.83,WSW,239,1.0,1.0,26,0.00,,,0.00,VWS V14.01,2013-04-20 20:47:00,
2013-04-20 13:48:00,82.2,42.9,29.83,WSW,248,2.0,2.0,25,0.00,,,0.00,VWS V14.01,2013-04-20 20:48:00,
2013-04-20 13:51:00,82.5,42.1,29.83,West,266,3.0,5.0,24,0.00,,,0.00,VWS V14.01,2013-04-20 20:51:00,
2013-04-20 13:54:00,82.1,41.8,29.83,WSW,258,5.0,5.0,24,0.00,,,0.00,VWS V14.01,2013-04-20 20:54:00,
2013-04-20 13:55:00,81.8,41.5,29.83,West,260,7.0,8.0,24,0.00,,,0.00,VWS V14.01,2013-04-20 20:55:00,
2013-04-20 13:57:00,81.5,42.3,29.83,WSW,253,2.0,9.0,25,0.00,,,0.00,VWS V14.01,2013-04-20 20:57:00,
2013-04-20 14:00:00,81.3,42.2,29.83,West,273,2.0,4.0,25,0.00,,,0.00,VWS V14.01,2013-04-20 21:00:00,
2013-04-20 14:01:00,81.4,43.3,29.83,WSW,245,4.0,4.0,26,0.00,,,0.00,VWS V14.01,2013-04-20 21:01:00,
2013-04-20 14:03:00,81.4,42.2,29.83,West,271,3.0,3.0,25,0.00,,,0.00,VWS V14.01,2013-04-20 21:03:00,
2013-04-20 14:07:00,81.9,42.7,29.83,WSW,239,5.0,6.0,25,0.00,,,0.00,VWS V14.01,2013-04-20 21:07:00,
2013-04-20 14:08:00,81.9,41.6,29.83,SW,219,5.0,5.0,24,0.00,,,0.00,VWS V14.01,2013-04-20 21:08:00,
2013-04-20 14:10:00,81.7,42.5,29.82,SW,221,2.0,6.0,25,0.00,,,0.00,VWS V14.01,2013-04-20 21:10:00,
2013-04-20 14:12:00,81.9,42.7,29.82,WSW,239,4.0,5.0,25,0.00,,,0.00,VWS V14.01,2013-04-20 21:12:00,
2013-04-20 14:14:00,82.1,41.8,29.82,ENE,73,1.0,2.0,24,0.00,,,0.00,VWS V14.01,2013-04-20 21:14:00,
2013-04-20 14:16:00,82.4,43.1,29.82,SSW,201,3.0,6.0,25,0.00,,,0.00,VWS V14.01,2013-04-20 21:16:00,
2013-04-20 14:17:00,82.5,43.2,29.82,SSW,194,6.0,6.0,25,0.00,,,0.00,VWS V14.01,2013-04-20 21:17:00,
2013-04-20 14:18:00,82.6,42.2,29.82,SSW,192,4.0,7.0,24,0.00,,,0.00,VWS V14.01,2013-04-20 21:18:00,
2013-04-20 14:20:00,82.5,42.1,29.82,SSW,192,1.0,3.0,24,0.00,,,0.00,VWS V14.01,2013-04-20 21:20:00,
2013-04-20 14:21:00,82.5,42.1,29.82,WSW,238,5.0,6.0,24,0.00,,,0.00,VWS V14.01,2013-04-20 21:21:00,
2013-04-20 14:22:00,82.5,42.1,29.82,West,274,6.0,8.0,24,0.00,,,0.00,VWS V14.01,2013-04-20 21:22:00,
2013-04-20 14:23:00,82.4,42.0,29.82,WSW,256,3.0,6.0,24,0.00,,,0.00,VWS V14.01,2013-04-20 21:23:00,
2013-04-20 14:26:00,82.6,43.2,29.82,West,263,2.0,4.0,25,0.00,,,0.00,VWS V14.01,2013-04-20 21:26:00,
2013-04-20 14:28:00,83.0,43.6,29.82,WSW,253,1.0,5.0,25,0.00,,,0.00,VWS V14.01,2013-04-20 21:28:00,
2013-04-20 14:29:00,83.0,43.6,29.82,NW,319,0.0,1.0,25,0.00,,,0.00,VWS V14.01,2013-04-20 21:29:00,
2013-04-20 14:31:00,83.3,42.8,29.82,SSW,210,3.0,5.0,24,0.00,,,0.00,VWS V14.01,2013-04-20 21:31:00,
2013-04-20 14:33:00,83.2,43.8,29.82,WSW,249,2.0,4.0,25,0.00,,,0.00,VWS V14.01,2013-04-20 21:33:00,
2013-04-20 14:35:00,83.2,43.8,29.82,SW,226,5.0,6.0,25,0.00,,,0.00,VWS V14.01,2013-04-20 21:35:00,
2013-04-20 14:36:00,83.0,43.6,29.82,WSW,239,7.0,8.0,25,0.00,,,0.00,VWS V14.01,2013-04-20 21:36:00,
2013-04-20 14:38:00,82.7,44.4,29.82,SW,235,8.0,10.0,26,0.00,,,0.00,VWS V14.01,2013-04-20 21:38:00,
2013-04-20 14:39:00,82.5,44.2,29.82,West,268,3.0,8.0,26,0.00,,,0.00,VWS V14.01,2013-04-20 21:39:00,
2013-04-20 14:41:00,82.2,44.9,29.82,SSW,205,5.0,9.0,27,0.00,,,0.00,VWS V14.01,2013-04-20 21:41:00,
2013-04-20 14:43:00,82.1,44.8,29.82,SW,232,7.0,7.0,27,0.00,,,0.00,VWS V14.01,2013-04-20 21:43:00,
2013-04-20 14:45:00,81.9,44.7,29.82,SW,222,5.0,7.0,27,0.00,,,0.00,VWS V14.01,2013-04-20 21:45:00,
2013-04-20 14:47:00,81.9,43.7,29.82,SW,218,6.0,8.0,26,0.00,,,0.00,VWS V14.01,2013-04-20 21:47:00,
2013-04-20 14:48:00,81.8,44.6,29.82,SSW,212,5.0,5.0,27,0.00,,,0.00,VWS V14.01,2013-04-20 21:48:00,
2013-04-20 14:49:00,81.8,43.6,29.82,SSW,209,6.0,8.0,26,0.00,,,0.00,VWS V14.01,2013-04-20 21:49:00,
2013-04-20 14:52:00,81.5,43.3,29.82,WSW,258,6.0,9.0,26,0.00,,,0.00,VWS V14.01,2013-04-20 21:52:00,
2013-04-20 14:53:00,81.4,43.3,29.82,West,263,4.0,8.0,26,0.00,,,0.00,VWS V14.01,2013-04-20 21:53:00,
2013-04-20 14:54:00,81.4,43.3,29.82,West,278,5.0,8.0,26,0.00,,,0.00,VWS V14.01,2013-04-20 21:54:00,
2013-04-20 14:57:00,81.4,43.3,29.82,WSW,244,6.0,7.0,26,0.00,,,0.00,VWS V14.01,2013-04-20 21:57:00,
2013-04-20 14:58:00,81.2,43.1,29.82,SW,228,6.0,7.0,26,0.00,,,0.00,VWS V14.01,2013-04-20 21:58:00,
2013-04-20 14:59:00,81.2,43.1,29.82,SSE,162,2.0,7.0,26,0.00,,,0.00,VWS V14.01,2013-04-20 21:59:00,
2013-04-20 15:00:00,81.3,43.2,29.82,SW,229,4.0,8.0,26,0.00,,,0.00,VWS V14.01,2013-04-20 22:00:00,
2013-04-20 15:01:00,81.4,43.3,29.82,SW,223,4.0,6.0,26,0.00,,,0.00,VWS V14.01,2013-04-20 22:01:00,
2013-04-20 15:03:00,81.5,43.3,29.82,SSE,148,3.0,6.0,26,0.00,,,0.00,VWS V14.01,2013-04-20 22:03:00,
2013-04-20 15:05:00,81.6,43.4,29.82,WSW,245,6.0,7.0,26,0.00,,,0.00,VWS V14.01,2013-04-20 22:05:00,
2013-04-20 15:08:00,81.9,42.7,29.82,SSW,205,5.0,6.0,25,0.00,,,0.00,VWS V14.01,2013-04-20 22:08:00,
2013-04-20 15:09:00,81.7,41.4,29.82,SSE,160,4.0,8.0,24,0.00,,,0.00,VWS V14.01,2013-04-20 22:09:00,
2013-04-20 15:10:00,81.5,42.3,29.82,SSW,204,3.0,7.0,25,0.00,,,0.00,VWS V14.01,2013-04-20 22:10:00,
2013-04-20 15:12:00,81.5,42.3,29.82,SW,235,7.0,7.0,25,0.00,,,0.00,VWS V14.01,2013-04-20 22:12:00,
2013-04-20 15:15:00,81.2,41.0,29.82,SW,236,6.0,6.0,24,0.00,,,0.00,VWS V14.01,2013-04-20 22:15:00,
2013-04-20 15:16:00,81.2,41.0,29.82,SW,232,2.0,6.0,24,0.00,,,0.00,VWS V14.01,2013-04-20 22:16:00,
2013-04-20 15:17:00,81.2,41.0,29.82,WSW,247,4.0,5.0,24,0.00,,,0.00,VWS V14.01,2013-04-20 22:17:00,
2013-04-20 15:18:00,81.4,41.2,29.82,South,191,2.0,6.0,24,0.00,,,0.00,VWS V14.01,2013-04-20 22:18:00,
2013-04-20 15:21:00,81.4,40.1,29.82,South,187,2.0,4.0,23,0.00,,,0.00,VWS V14.01,2013-04-20 22:21:00,
2013-04-20 15:22:00,81.6,40.2,29.82,SW,222,6.0,6.0,23,0.00,,,0.00,VWS V14.01,2013-04-20 22:22:00,
2013-04-20 15:24:00,81.6,39.1,29.82,South,185,3.0,6.0,22,0.00,,,0.00,VWS V14.01,2013-04-20 22:24:00,
2013-04-20 15:29:00,81.8,40.4,29.81,SE,145,4.0,4.0,23,0.00,,,0.00,VWS V14.01,2013-04-20 22:29:00,
2013-04-20 15:30:00,81.8,41.5,29.81,SSW,194,2.0,4.0,24,0.00,,,0.00,VWS V14.01,2013-04-20 22:30:00,
2013-04-20 15:31:00,81.9,41.6,29.81,SW,224,4.0,5.0,24,0.00,,,0.00,VWS V14.01,2013-04-20 22:31:00,
2013-04-20 15:32:00,82.0,40.6,29.81,South,184,3.0,5.0,23,0.00,,,0.00,VWS V14.01,2013-04-20 22:32:00,
2013-04-20 15:34:00,81.9,40.5,29.81,SW,225,3.0,6.0,23,0.00,,,0.00,VWS V14.01,2013-04-20 22:34:00,
2013-04-20 15:35:00,81.9,41.6,29.81,West,275,4.0,6.0,24,0.00,,,0.00,VWS V14.01,2013-04-20 22:35:00,
2013-04-20 15:36:00,81.7,40.3,29.81,West,280,4.0,4.0,23,0.00,,,0.00,VWS V14.01,2013-04-20 22:36:00,
2013-04-20 15:38:00,81.6,41.3,29.81,West,274,3.0,3.0,24,0.00,,,0.00,VWS V14.01,2013-04-20 22:38:00,
2013-04-20 15:39:00,81.6,41.3,29.81,SSW,198,4.0,5.0,24,0.00,,,0.00,VWS V14.01,2013-04-20 22:39:00,
2013-04-20 15:41:00,81.9,40.5,29.81,South,191,1.0,4.0,23,0.00,,,0.00,VWS V14.01,2013-04-20 22:41:00,
2013-04-20 15:42:00,82.0,40.6,29.81,SSW,205,1.0,1.0,23,0.00,,,0.00,VWS V14.01,2013-04-20 22:42:00,
2013-04-20 15:43:00,82.2,40.8,29.81,SW,232,4.0,5.0,23,0.00,,,0.00,VWS V14.01,2013-04-20 22:43:00,
2013-04-20 15:44:00,82.3,41.9,29.81,WSW,252,1.0,5.0,24,0.00,,,0.00,VWS V14.01,2013-04-20 22:44:00,
2013-04-20 15:46:00,82.4,40.9,29.81,SSW,201,2.0,2.0,23,0.00,,,0.00,VWS V14.01,2013-04-20 22:46:00,
2013-04-20 15:48:00,82.5,41.0,29.81,WSW,255,2.0,4.0,23,0.00,,,0.00,VWS V14.01,2013-04-20 22:48:00,
2013-04-20 15:50:00,82.8,41.3,29.80,West,274,4.0,6.0,23,0.00,,,0.00,VWS V14.01,2013-04-20 22:50:00,
2013-04-20 15:51:00,82.9,41.3,29.80,SSW,213,3.0,5.0,23,0.00,,,0.00,VWS V14.01,2013-04-20 22:51:00,
2013-04-20 15:52:00,82.8,41.3,29.80,South,178,3.0,3.0,23,0.00,,,0.00,VWS V14.01,2013-04-20 22:52:00,
2013-04-20 15:53:00,82.8,41.3,29.80,West,276,1.0,4.0,23,0.00,,,0.00,VWS V14.01,2013-04-20 22:53:00,
2013-04-20 15:55:00,83.0,41.4,29.80,WNW,288,2.0,3.0,23,0.00,,,0.00,VWS V14.01,2013-04-20 22:55:00,
2013-04-20 15:56:00,82.9,41.3,29.80,SW,236,1.0,2.0,23,0.00,,,0.00,VWS V14.01,2013-04-20 22:56:00,
2013-04-20 15:58:00,82.9,41.3,29.80,SW,229,5.0,5.0,23,0.00,,,0.00,VWS V14.01,2013-04-20 22:58:00,
2013-04-20 16:01:00,82.8,41.3,29.80,WSW,253,2.0,7.0,23,0.00,,,0.00,VWS V14.01,2013-04-20 23:01:00,
2013-04-20 16:03:00,82.8,41.3,29.80,SW,229,1.0,2.0,23,0.00,,,0.00,VWS V14.01,2013-04-20 23:03:00,
2013-04-20 16:04:00,83.0,41.4,29.80,WSW,257,3.0,3.0,23,0.00,,,0.00,VWS V14.01,2013-04-20 23:04:00,
2013-04-20 16:07:00,83.3,42.8,29.80,West,271,3.0,6.0,24,0.00,,,0.00,VWS V14.01,2013-04-20 23:07:00,
2013-04-20 16:09:00,83.3,41.7,29.80,WSW,238,3.0,3.0,23,0.00,,,0.00,VWS V14.01,2013-04-20 23:09:00,
2013-04-20 16:10:00,83.3,41.7,29.80,WSW,246,3.0,3.0,23,0.00,,,0.00,VWS V14.01,2013-04-20 23:10:00,
2013-04-20 16:12:00,83.3,41.7,29.80,SW,215,4.0,6.0,23,0.00,,,0.00,VWS V14.01,2013-04-20 23:12:00,
2013-04-20 16:15:00,83.6,41.9,29.80,West,271,3.0,6.0,23,0.00,,,0.00,VWS V14.01,2013-04-20 23:15:00,
2013-04-20 16:16:00,83.6,41.9,29.80,West,262,4.0,6.0,23,0.00,,,0.00,VWS V14.01,2013-04-20 23:16:00,
2013-04-20 16:17:00,83.5,41.8,29.80,WSW,246,3.0,3.0,23,0.00,,,0.00,VWS V14.01,2013-04-20 23:17:00,
2013-04-20 16:18:00,83.6,41.9,29.80,SSE,162,4.0,4.0,23,0.00,,,0.00,VWS V14.01,2013-04-20 23:18:00,
2013-04-20 16:21:00,83.6,41.9,29.80,WSW,257,3.0,5.0,23,0.00,,,0.00,VWS V14.01,2013-04-20 23:21:00,
2013-04-20 16:22:00,83.8,42.1,29.80,WNW,294,5.0,5.0,23,0.00,,,0.00,VWS V14.01,2013-04-20 23:22:00,
2013-04-20 16:23:00,83.8,42.1,29.80,West,270,4.0,5.0,23,0.00,,,0.00,VWS V14.01,2013-04-20 23:23:00,
2013-04-20 16:24:00,83.7,42.0,29.80,WSW,238,4.0,5.0,23,0.00,,,0.00,VWS V14.01,2013-04-20 23:24:00,
2013-04-20 16:27:00,83.7,42.0,29.80,WSW,253,2.0,3.0,23,0.00,,,0.00,VWS V14.01,2013-04-20 23:27:00,
2013-04-20 16:28:00,83.8,42.1,29.80,WNW,287,2.0,2.0,23,0.00,,,0.00,VWS V14.01,2013-04-20 23:28:00,
2013-04-20 16:29:00,83.8,40.9,29.80,SSW,193,3.0,5.0,22,0.00,,,0.00,VWS V14.01,2013-04-20 23:29:00,
2013-04-20 16:30:00,83.8,40.9,29.80,West,276,6.0,6.0,22,0.00,,,0.00,VWS V14.01,2013-04-20 23:30:00,
2013-04-20 16:32:00,83.5,41.8,29.80,SW,219,3.0,5.0,23,0.00,,,0.00,VWS V14.01,2013-04-20 23:32:00,
2013-04-20 16:35:00,83.6,40.8,29.80,West,273,4.0,7.0,22,0.00,,,0.00,VWS V14.01,2013-04-20 23:35:00,
2013-04-20 16:37:00,83.7,40.9,29.80,West,264,4.0,5.0,22,0.00,,,0.00,VWS V14.01,2013-04-20 23:37:00,
2013-04-20 16:38:00,83.9,41.0,29.80,WSW,252,5.0,6.0,22,0.00,,,0.00,VWS V14.01,2013-04-20 23:38:00,
2013-04-20 16:40:00,83.9,41.0,29.80,WSW,249,2.0,2.0,22,0.00,,,0.00,VWS V14.01,2013-04-20 23:40:00,
2013-04-20 16:41:00,84.0,41.1,29.80,SSW,207,2.0,3.0,22,0.00,,,0.00,VWS V14.01,2013-04-20 23:41:00,
2013-04-20 16:42:00,84.0,41.1,29.80,SW,228,3.0,4.0,22,0.00,,,0.00,VWS V14.01,2013-04-20 23:42:00,
2013-04-20 16:43:00,84.1,42.3,29.80,WSW,255,4.0,6.0,23,0.00,,,0.00,VWS V14.01,2013-04-20 23:43:00,
2013-04-20 16:47:00,84.1,41.2,29.80,SW,221,4.0,4.0,22,0.00,,,0.00,VWS V14.01,2013-04-20 23:47:00,
2013-04-20 16:48:00,84.1,41.2,29.80,WSW,248,3.0,5.0,22,0.00,,,0.00,VWS V14.01,2013-04-20 23:48:00,
2013-04-20 16:49:00,84.0,41.1,29.80,SW,236,2.0,3.0,22,0.00,,,0.00,VWS V14.01,2013-04-20 23:49:00,
2013-04-20 16:52:00,84.4,41.4,29.80,WSW,253,2.0,4.0,22,0.00,,,0.00,VWS V14.01,2013-04-20 23:52:00,
2013-04-20 16:53:00,84.6,41.6,29.80,WSW,257,4.0,6.0,22,0.00,,,0.00,VWS V14.01,2013-04-20 23:53:00,
2013-04-20 16:55:00,84.4,40.2,29.80,SW,218,2.0,6.0,21,0.00,,,0.00,VWS V14.01,2013-04-20 23:55:00,
2013-04-20 16:56:00,84.3,41.4,29.80,WNW,289,5.0,7.0,22,0.00,,,0.00,VWS V14.01,2013-04-20 23:56:00,
2013-04-20 17:00:00,83.8,40.9,29.80,West,269,4.0,8.0,22,0.00,,,0.00,VWS V14.01,2013-04-21 00:00:00,
2013-04-20 17:01:00,83.7,39.7,29.80,West,281,2.0,6.0,21,0.00,,,0.00,VWS V14.01,2013-04-21 00:01:00,
2013-04-20 17:02:00,83.5,40.7,29.80,WSW,250,3.0,5.0,22,0.00,,,0.00,VWS V14.01,2013-04-21 00:02:00,
2013-04-20 17:03:00,83.4,40.6,29.80,SW,224,4.0,5.0,22,0.00,,,0.00,VWS V14.01,2013-04-21 00:03:00,
2013-04-20 17:06:00,83.5,41.8,29.80,SW,233,3.0,5.0,23,0.00,,,0.00,VWS V14.01,2013-04-21 00:06:00,
2013-04-20 17:07:00,83.5,41.8,29.80,WSW,257,4.0,5.0,23,0.00,,,0.00,VWS V14.01,2013-04-21 00:07:00,
2013-04-20 17:09:00,83.0,42.5,29.80,SW,229,4.0,5.0,24,0.00,,,0.00,VWS V14.01,2013-04-21 00:09:00,
2013-04-20 17:10:00,83.0,42.5,29.80,SW,232,2.0,5.0,24,0.00,,,0.00,VWS V14.01,2013-04-21 00:10:00,
2013-04-20 17:13:00,82.3,43.0,29.80,West,276,4.0,5.0,25,0.00,,,0.00,VWS V14.01,2013-04-21 00:13:00,
2013-04-20 17:14:00,82.0,42.8,29.80,WSW,243,3.0,7.0,25,0.00,,,0.00,VWS V14.01,2013-04-21 00:14:00,
2013-04-20 17:15:00,81.9,43.7,29.80,WSW,239,2.0,7.0,26,0.00,,,0.00,VWS V14.01,2013-04-21 00:15:00,
2013-04-20 17:16:00,81.9,43.7,29.80,West,266,1.0,7.0,26,0.00,,,0.00,VWS V14.01,2013-04-21 00:16:00,
2013-04-20 17:17:00,81.8,44.6,29.80,NNW,345,1.0,3.0,27,0.00,,,0.00,VWS V14.01,2013-04-21 00:17:00,
2013-04-20 17:20:00,82.1,45.8,29.80,NNE,20,1.0,4.0,28,0.00,,,0.00,VWS V14.01,2013-04-21 00:20:00,
2013-04-20 17:21:00,82.3,46.0,29.80,North,4,2.0,2.0,28,0.00,,,0.00,VWS V14.01,2013-04-21 00:21:00,
2013-04-20 17:22:00,82.4,47.0,29.80,NNW,342,3.0,3.0,29,0.00,,,0.00,VWS V14.01,2013-04-21 00:22:00,
2013-04-20 17:23:00,82.5,46.1,29.80,NNW,333,3.0,3.0,28,0.00,,,0.00,VWS V14.01,2013-04-21 00:23:00,
2013-04-20 17:25:00,82.4,47.0,29.80,NW,319,1.0,3.0,29,0.00,,,0.00,VWS V14.01,2013-04-21 00:25:00,
2013-04-20 17:26:00,82.4,47.0,29.80,NW,317,2.0,3.0,29,0.00,,,0.00,VWS V14.01,2013-04-21 00:26:00,
2013-04-20 17:27:00,82.4,47.0,29.80,NW,309,1.0,2.0,29,0.00,,,0.00,VWS V14.01,2013-04-21 00:27:00,
2013-04-20 17:29:00,82.5,47.1,29.80,NNW,345,3.0,7.0,29,0.00,,,0.00,VWS V14.01,2013-04-21 00:29:00,
2013-04-20 17:30:00,82.5,47.1,29.80,WNW,301,1.0,3.0,29,0.00,,,0.00,VWS V14.01,2013-04-21 00:30:00,
2013-04-20 17:32:00,82.3,46.9,29.80,NNE,13,2.0,5.0,29,0.00,,,0.00,VWS V14.01,2013-04-21 00:32:00,
2013-04-20 17:33:00,82.2,46.8,29.80,West,269,2.0,4.0,29,0.00,,,0.00,VWS V14.01,2013-04-21 00:33:00,
2013-04-20 17:35:00,82.2,46.8,29.80,West,278,1.0,2.0,29,0.00,,,0.00,VWS V14.01,2013-04-21 00:35:00,
2013-04-20 17:36:00,82.3,46.9,29.80,WNW,287,1.0,2.0,29,0.00,,,0.00,VWS V14.01,2013-04-21 00:36:00,
2013-04-20 17:37:00,82.3,46.9,29.80,WNW,288,2.0,4.0,29,0.00,,,0.00,VWS V14.01,2013-04-21 00:37:00,
2013-04-20 17:39:00,81.7,46.4,29.80,WNW,302,5.0,5.0,29,0.00,,,0.00,VWS V14.01,2013-04-21 00:39:00,
2013-04-20 17:40:00,81.2,46.0,29.80,NW,314,4.0,5.0,29,0.00,,,0.00,VWS V14.01,2013-04-21 00:40:00,
2013-04-20 17:44:00,80.5,45.3,29.80,NNW,333,5.0,5.0,29,0.00,,,0.00,VWS V14.01,2013-04-21 00:44:00,
2013-04-20 17:45:00,80.5,45.3,29.80,North,353,1.0,5.0,29,0.00,,,0.00,VWS V14.01,2013-04-21 00:45:00,
2013-04-20 17:46:00,80.3,45.2,29.80,NW,313,2.0,3.0,29,0.00,,,0.00,VWS V14.01,2013-04-21 00:46:00,
2013-04-20 17:50:00,79.8,43.8,29.80,NNW,340,5.0,5.0,28,0.00,,,0.00,VWS V14.01,2013-04-21 00:50:00,
2013-04-20 17:51:00,79.6,42.7,29.80,NW,311,1.0,4.0,27,0.00,,,0.00,VWS V14.01,2013-04-21 00:51:00,
2013-04-20 17:53:00,79.7,42.8,29.81,WSW,249,2.0,2.0,27,0.00,,,0.00,VWS V14.01,2013-04-21 00:53:00,
2013-04-20 17:54:00,79.8,42.9,29.81,NW,320,3.0,3.0,27,0.00,,,0.00,VWS V14.01,2013-04-21 00:54:00,
2013-04-20 17:56:00,79.8,41.9,29.81,NNW,338,3.0,5.0,26,0.00,,,0.00,VWS V14.01,2013-04-21 00:56:00,
2013-04-20 17:58:00,79.7,42.8,29.81,WNW,290,1.0,1.0,27,0.00,,,0.00,VWS V14.01,2013-04-21 00:58:00,
2013-04-20 17:59:00,79.8,42.9,29.81,NW,312,1.0,2.0,27,0.00,,,0.00,VWS V14.01,2013-04-21 00:59:00,
2013-04-20 18:00:00,79.8,42.9,29.81,WNW,301,0.0,2.0,27,0.00,,,0.00,VWS V14.01,2013-04-21 01:00:00,
2013-04-20 18:01:00,79.9,43.0,29.81,West,277,1.0,2.0,27,0.00,,,0.00,VWS V14.01,2013-04-21 01:01:00,
2013-04-20 18:03:00,79.7,42.8,29.81,North,350,3.0,3.0,27,0.00,,,0.00,VWS V14.01,2013-04-21 01:03:00,
2013-04-20 18:04:00,79.6,43.7,29.81,NW,319,1.0,3.0,28,0.00,,,0.00,VWS V14.01,2013-04-21 01:04:00,
2013-04-20 18:05:00,79.6,43.7,29.81,NW,316,0.0,1.0,28,0.00,,,0.00,VWS V14.01,2013-04-21 01:05:00,
2013-04-20 18:07:00,79.6,44.6,29.81,NNW,331,2.0,3.0,29,0.00,,,0.00,VWS V14.01,2013-04-21 01:07:00,
2013-04-20 18:09:00,79.6,43.7,29.81,West,260,2.0,3.0,28,0.00,,,0.00,VWS V14.01,2013-04-21 01:09:00,
2013-04-20 18:10:00,79.7,43.8,29.81,WNW,283,3.0,3.0,28,0.00,,,0.00,VWS V14.01,2013-04-21 01:10:00,
2013-04-20 18:11:00,79.8,44.8,29.81,WSW,256,1.0,2.0,29,0.00,,,0.00,VWS V14.01,2013-04-21 01:11:00,
2013-04-20 18:12:00,79.9,43.9,29.81,WSW,255,3.0,3.0,28,0.00,,,0.00,VWS V14.01,2013-04-21 01:12:00,
2013-04-20 18:16:00,79.7,43.8,29.81,NW,316,1.0,2.0,28,0.00,,,0.00,VWS V14.01,2013-04-21 01:16:00,
2013-04-20 18:17:00,79.6,43.7,29.81,North,357,1.0,3.0,28,0.00,,,0.00,VWS V14.01,2013-04-21 01:17:00,
2013-04-20 18:19:00,79.5,43.6,29.81,West,281,1.0,2.0,28,0.00,,,0.00,VWS V14.01,2013-04-21 01:19:00,
2013-04-20 18:21:00,79.6,43.7,29.81,WNW,297,1.0,2.0,28,0.00,,,0.00,VWS V14.01,2013-04-21 01:21:00,
2013-04-20 18:22:00,79.6,43.7,29.81,WNW,290,2.0,3.0,28,0.00,,,0.00,VWS V14.01,2013-04-21 01:22:00,
2013-04-20 18:23:00,79.6,43.7,29.81,WSW,238,2.0,3.0,28,0.00,,,0.00,VWS V14.01,2013-04-21 01:23:00,
2013-04-20 18:25:00,79.5,43.6,29.81,NNW,337,1.0,2.0,28,0.00,,,0.00,VWS V14.01,2013-04-21 01:25:00,
2013-04-20 18:27:00,79.3,44.3,29.81,NW,322,2.0,2.0,29,0.00,,,0.00,VWS V14.01,2013-04-21 01:27:00,
2013-04-20 18:28:00,79.2,44.2,29.81,West,272,1.0,2.0,29,0.00,,,0.00,VWS V14.01,2013-04-21 01:28:00,
2013-04-20 18:29:00,79.1,44.2,29.81,WSW,256,1.0,3.0,29,0.00,,,0.00,VWS V14.01,2013-04-21 01:29:00,
2013-04-20 18:33:00,78.9,44.0,29.81,West,262,1.0,2.0,29,0.00,,,0.00,VWS V14.01,2013-04-21 01:33:00,
2013-04-20 18:34:00,78.8,44.8,29.81,North,359,3.0,3.0,30,0.00,,,0.00,VWS V14.01,2013-04-21 01:34:00,
2013-04-20 18:35:00,78.8,44.8,29.81,NW,309,1.0,2.0,30,0.00,,,0.00,VWS V14.01,2013-04-21 01:35:00,
2013-04-20 18:38:00,78.6,44.6,29.81,NNW,336,1.0,1.0,30,0.00,,,0.00,VWS V14.01,2013-04-21 01:38:00,
2013-04-20 18:39:00,78.6,44.6,29.81,WSW,255,2.0,2.0,30,0.00,,,0.00,VWS V14.01,2013-04-21 01:39:00,
2013-04-20 18:40:00,78.5,44.5,29.81,WSW,249,2.0,2.0,30,0.00,,,0.00,VWS V14.01,2013-04-21 01:40:00,
2013-04-20 18:41:00,78.4,44.4,29.81,West,264,2.0,3.0,30,0.00,,,0.00,VWS V14.01,2013-04-21 01:41:00,
2013-04-20 18:42:00,78.2,44.3,29.81,WSW,257,2.0,2.0,30,0.00,,,0.00,VWS V14.01,2013-04-21 01:42:00,
2013-04-20 18:44:00,78.0,44.1,29.81,SW,230,4.0,5.0,30,0.00,,,0.00,VWS V14.01,2013-04-21 01:44:00,
2013-04-20 18:45:00,77.9,44.0,29.81,WSW,250,5.0,5.0,30,0.00,,,0.00,VWS V14.01,2013-04-21 01:45:00,
2013-04-20 18:49:00,77.2,44.2,29.81,WSW,239,6.0,6.0,31,0.00,,,0.00,VWS V14.01,2013-04-21 01:49:00,
2013-04-20 18:50:00,77.0,45.7,29.82,SSW,202,4.0,4.0,33,0.00,,,0.00,VWS V14.01,2013-04-21 01:50:00,
2013-04-20 18:51:00,76.8,45.5,29.82,SSW,212,5.0,6.0,33,0.00,,,0.00,VWS V14.01,2013-04-21 01:51:00,
2013-04-20 18:53:00,76.2,45.8,29.82,WSW,246,5.0,7.0,34,0.00,,,0.00,VWS V14.01,2013-04-21 01:53:00,
2013-04-20 18:55:00,75.6,46.0,29.82,SSE,155,4.0,6.0,35,0.00,,,0.00,VWS V14.01,2013-04-21 01:55:00,
2013-04-20 18:57:00,75.1,45.6,29.82,West,260,3.0,6.0,35,0.00,,,0.00,VWS V14.01,2013-04-21 01:57:00,
2013-04-20 18:59:00,74.6,45.2,29.82,SSW,197,2.0,5.0,35,0.00,,,0.00,VWS V14.01,2013-04-21 01:59:00,
2013-04-20 19:00:00,74.5,45.1,29.82,SSW,210,6.0,6.0,35,0.00,,,0.00,VWS V14.01,2013-04-21 02:00:00,
2013-04-20 19:01:00,74.3,44.9,29.82,SW,227,3.0,5.0,35,0.00,,,0.00,VWS V14.01,2013-04-21 02:01:00,
2013-04-20 19:03:00,73.9,44.5,29.82,South,174,3.0,3.0,35,0.00,,,0.00,VWS V14.01,2013-04-21 02:03:00,
2013-04-20 19:05:00,73.7,44.4,29.82,SSW,211,3.0,3.0,35,0.00,,,0.00,VWS V14.01,2013-04-21 02:05:00,
2013-04-20 19:06:00,73.5,44.2,29.82,SSW,212,3.0,4.0,35,0.00,,,0.00,VWS V14.01,2013-04-21 02:06:00,
2013-04-20 19:07:00,73.3,44.0,29.82,SW,221,4.0,4.0,35,0.00,,,0.00,VWS V14.01,2013-04-21 02:07:00,
2013-04-20 19:10:00,72.8,44.3,29.83,SSW,207,3.0,5.0,36,0.00,,,0.00,VWS V14.01,2013-04-21 02:10:00,
2013-04-20 19:12:00,72.4,44.0,29.83,SSW,193,1.0,3.0,36,0.00,,,0.00,VWS V14.01,2013-04-21 02:12:00,
2013-04-20 19:13:00,72.3,43.9,29.83,SE,131,2.0,4.0,36,0.00,,,0.00,VWS V14.01,2013-04-21 02:13:00,
2013-04-20 19:14:00,72.1,43.7,29.83,SSW,211,2.0,5.0,36,0.00,,,0.00,VWS V14.01,2013-04-21 02:14:00,
2013-04-20 19:15:00,72.0,43.6,29.83,SSE,152,3.0,3.0,36,0.00,,,0.00,VWS V14.01,2013-04-21 02:15:00,
2013-04-20 19:18:00,71.5,45.3,29.83,SE,126,2.0,2.0,39,0.00,,,0.00,VWS V14.01,2013-04-21 02:18:00,
2013-04-20 19:19:00,71.4,49.6,29.83,ESE,104,2.0,3.0,46,0.00,,,0.00,VWS V14.01,2013-04-21 02:19:00,
2013-04-20 19:22:00,70.5,51.0,29.83,East,91,4.0,5.0,50,0.00,,,0.00,VWS V14.01,2013-04-21 02:22:00,
2013-04-20 19:23:00,70.1,51.2,29.83,East,94,3.0,4.0,51,0.00,,,0.00,VWS V14.01,2013-04-21 02:23:00,
2013-04-20 19:24:00,69.7,51.8,29.83,ESE,103,3.0,4.0,53,0.00,,,0.00,VWS V14.01,2013-04-21 02:24:00,
2013-04-20 19:26:00,69.1,51.8,29.83,SE,141,2.0,4.0,54,0.00,,,0.00,VWS V14.01,2013-04-21 02:26:00,
2013-04-20 19:27:00,68.9,52.1,29.83,ESE,117,2.0,4.0,55,0.00,,,0.00,VWS V14.01,2013-04-21 02:27:00,
2013-04-20 19:28:00,68.7,51.9,29.84,SE,135,2.0,4.0,55,0.00,,,0.00,VWS V14.01,2013-04-21 02:28:00,
2013-04-20 19:31:00,68.1,52.3,29.84,SE,146,2.0,3.0,57,0.00,,,0.00,VWS V14.01,2013-04-21 02:31:00,
2013-04-20 19:33:00,67.8,52.5,29.84,SE,137,2.0,5.0,58,0.00,,,0.00,VWS V14.01,2013-04-21 02:33:00,
2013-04-20 19:34:00,67.6,52.8,29.84,ESE,117,2.0,3.0,59,0.00,,,0.00,VWS V14.01,2013-04-21 02:34:00,
2013-04-20 19:37:00,67.3,53.0,29.84,ESE,117,3.0,3.0,60,0.00,,,0.00,VWS V14.01,2013-04-21 02:37:00,
2013-04-20 19:38:00,67.2,52.9,29.84,SE,145,2.0,3.0,60,0.00,,,0.00,VWS V14.01,2013-04-21 02:38:00,
2013-04-20 19:39:00,67.1,52.8,29.84,SE,139,4.0,4.0,60,0.00,,,0.00,VWS V14.01,2013-04-21 02:39:00,
2013-04-20 19:40:00,67.0,53.1,29.84,SSE,147,2.0,4.0,61,0.00,,,0.00,VWS V14.01,2013-04-21 02:40:00,
2013-04-20 19:42:00,66.9,53.0,29.84,SE,139,4.0,4.0,61,0.00,,,0.00,VWS V14.01,2013-04-21 02:42:00,
2013-04-20 19:43:00,66.8,52.9,29.84,ESE,120,1.0,4.0,61,0.00,,,0.00,VWS V14.01,2013-04-21 02:43:00,
2013-04-20 19:44:00,66.8,53.4,29.84,SE,124,1.0,4.0,62,0.00,,,0.00,VWS V14.01,2013-04-21 02:44:00,
2013-04-20 19:45:00,66.7,53.3,29.84,SE,127,3.0,3.0,62,0.00,,,0.00,VWS V14.01,2013-04-21 02:45:00,
2013-04-20 19:47:00,66.6,53.2,29.84,SE,131,2.0,3.0,62,0.00,,,0.00,VWS V14.01,2013-04-21 02:47:00,
2013-04-20 19:48:00,66.5,53.1,29.84,ESE,117,3.0,4.0,62,0.00,,,0.00,VWS V14.01,2013-04-21 02:48:00,
2013-04-20 19:49:00,66.4,53.0,29.85,ESE,114,5.0,5.0,62,0.00,,,0.00,VWS V14.01,2013-04-21 02:49:00,
2013-04-20 19:50:00,66.3,52.9,29.85,East,99,3.0,5.0,62,0.00,,,0.00,VWS V14.01,2013-04-21 02:50:00,
2013-04-20 19:52:00,66.2,52.8,29.85,ESE,117,6.0,6.0,62,0.00,,,0.00,VWS V14.01,2013-04-21 02:52:00,
2013-04-20 19:53:00,66.1,52.7,29.85,East,90,2.0,6.0,62,0.00,,,0.00,VWS V14.01,2013-04-21 02:53:00,
2013-04-20 19:54:00,66.0,52.6,29.85,ESE,117,4.0,4.0,62,0.00,,,0.00,VWS V14.01,2013-04-21 02:54:00,
2013-04-20 19:55:00,65.9,52.5,29.85,ESE,118,2.0,5.0,62,0.00,,,0.00,VWS V14.01,2013-04-21 02:55:00,
2013-04-20 19:57:00,65.7,52.8,29.85,ESE,112,3.0,3.0,63,0.00,,,0.00,VWS V14.01,2013-04-21 02:57:00,
2013-04-20 19:58:00,65.6,52.7,29.85,SSE,158,2.0,4.0,63,0.00,,,0.00,VWS V14.01,2013-04-21 02:58:00,
2013-04-20 20:02:00,65.4,52.5,29.85,ESE,104,2.0,5.0,63,0.00,,,0.00,VWS V14.01,2013-04-21 03:02:00,
2013-04-20 20:03:00,65.3,52.4,29.85,East,101,1.0,1.0,63,0.00,,,0.00,VWS V14.01,2013-04-21 03:03:00,
2013-04-20 20:04:00,65.2,52.7,29.85,ESE,103,2.0,3.0,64,0.00,,,0.00,VWS V14.01,2013-04-21 03:04:00,
2013-04-20 20:07:00,65.1,52.6,29.85,East,100,3.0,5.0,64,0.00,,,0.00,VWS V14.01,2013-04-21 03:07:00,
2013-04-20 20:08:00,65.0,52.5,29.85,ESE,105,1.0,1.0,64,0.00,,,0.00,VWS V14.01,2013-04-21 03:08:00,
2013-04-20 20:09:00,65.0,52.5,29.85,ESE,115,2.0,3.0,64,0.00,,,0.00,VWS V14.01,2013-04-21 03:09:00,
2013-04-20 20:10:00,65.0,52.5,29.85,East,98,2.0,2.0,64,0.00,,,0.00,VWS V14.01,2013-04-21 03:10:00,
2013-04-20 20:12:00,64.9,52.5,29.85,SE,139,2.0,2.0,64,0.00,,,0.00,VWS V14.01,2013-04-21 03:12:00,
2013-04-20 20:14:00,64.8,52.8,29.86,SE,137,2.0,2.0,65,0.00,,,0.00,VWS V14.01,2013-04-21 03:14:00,
2013-04-20 20:16:00,64.7,52.7,29.85,SE,124,2.0,2.0,65,0.00,,,0.00,VWS V14.01,2013-04-21 03:16:00,
2013-04-20 20:18:00,64.6,52.6,29.86,SE,131,2.0,3.0,65,0.00,,,0.00,VWS V14.01,2013-04-21 03:18:00,
2013-04-20 20:19:00,64.5,52.5,29.86,ESE,113,3.0,3.0,65,0.00,,,0.00,VWS V14.01,2013-04-21 03:19:00,
2013-04-20 20:20:00,64.5,52.5,29.86,SE,124,3.0,3.0,65,0.00,,,0.00,VWS V14.01,2013-04-21 03:20:00,
2013-04-20 20:21:00,64.4,52.4,29.86,SE,139,2.0,2.0,65,0.00,,,0.00,VWS V14.01,2013-04-21 03:21:00,
2013-04-20 20:25:00,64.3,52.3,29.86,ESE,109,2.0,2.0,65,0.00,,,0.00,VWS V14.01,2013-04-21 03:25:00,
2013-04-20 20:26:00,64.2,52.2,29.86,SE,137,2.0,2.0,65,0.00,,,0.00,VWS V14.01,2013-04-21 03:26:00,
2013-04-20 20:27:00,64.2,52.2,29.86,SE,131,3.0,4.0,65,0.00,,,0.00,VWS V14.01,2013-04-21 03:27:00,
2013-04-20 20:29:00,64.1,52.1,29.86,SE,127,3.0,4.0,65,0.00,,,0.00,VWS V14.01,2013-04-21 03:29:00,
2013-04-20 20:30:00,64.1,52.1,29.86,ESE,117,2.0,2.0,65,0.00,,,0.00,VWS V14.01,2013-04-21 03:30:00,
2013-04-20 20:32:00,64.1,52.1,29.86,ESE,113,2.0,3.0,65,0.00,,,0.00,VWS V14.01,2013-04-21 03:32:00,
2013-04-20 20:34:00,64.1,52.1,29.86,SE,131,1.0,2.0,65,0.00,,,0.00,VWS V14.01,2013-04-21 03:34:00,
2013-04-20 20:37:00,64.0,52.0,29.86,ESE,114,1.0,1.0,65,0.00,,,0.00,VWS V14.01,2013-04-21 03:37:00,
2013-04-20 20:39:00,64.0,52.0,29.86,ESE,118,2.0,3.0,65,0.00,,,0.00,VWS V14.01,2013-04-21 03:39:00,
2013-04-20 20:41:00,63.9,51.9,29.86,ESE,108,2.0,2.0,65,0.00,,,0.00,VWS V14.01,2013-04-21 03:41:00,
2013-04-20 20:42:00,63.9,51.5,29.86,ESE,107,1.0,1.0,64,0.00,,,0.00,VWS V14.01,2013-04-21 03:42:00,
2013-04-20 20:44:00,63.9,51.5,29.86,ESE,110,1.0,2.0,64,0.00,,,0.00,VWS V14.01,2013-04-21 03:44:00,
2013-04-20 20:47:00,63.9,51.5,29.86,ESE,112,2.0,2.0,64,0.00,,,0.00,VWS V14.01,2013-04-21 03:47:00,
2013-04-20 20:48:00,63.9,51.5,29.86,East,97,1.0,2.0,64,0.00,,,0.00,VWS V14.01,2013-04-21 03:48:00,
2013-04-20 20:51:00,63.9,51.5,29.86,SE,125,1.0,2.0,64,0.00,,,0.00,VWS V14.01,2013-04-21 03:51:00,
2013-04-20 20:52:00,63.9,51.5,29.86,ESE,122,1.0,1.0,64,0.00,,,0.00,VWS V14.01,2013-04-21 03:52:00,
2013-04-20 20:54:00,63.8,51.4,29.86,SE,139,1.0,1.0,64,0.00,,,0.00,VWS V14.01,2013-04-21 03:54:00,
2013-04-20 20:56:00,63.8,51.4,29.86,SE,127,1.0,1.0,64,0.00,,,0.00,VWS V14.01,2013-04-21 03:56:00,
2013-04-20 20:58:00,63.7,51.3,29.86,SE,128,1.0,1.0,64,0.00,,,0.00,VWS V14.01,2013-04-21 03:58:00,
2013-04-20 20:59:00,63.7,51.3,29.87,SE,128,1.0,1.0,64,0.00,,,0.00,VWS V14.01,2013-04-21 03:59:00,
2013-04-20 21:00:00,63.7,51.3,29.87,SE,125,1.0,1.0,64,0.00,,,0.00,VWS V14.01,2013-04-21 04:00:00,
2013-04-20 21:01:00,63.7,51.3,29.87,SE,124,1.0,1.0,64,0.00,,,0.00,VWS V14.01,2013-04-21 04:01:00,
2013-04-20 21:03:00,63.6,51.2,29.87,SE,131,1.0,1.0,64,0.00,,,0.00,VWS V14.01,2013-04-21 04:03:00,
2013-04-20 21:04:00,63.6,51.2,29.87,SE,131,0.0,1.0,64,0.00,,,0.00,VWS V14.01,2013-04-21 04:04:00,
2013-04-20 21:08:00,63.6,51.2,29.87,SE,131,1.0,1.0,64,0.00,,,0.00,VWS V14.01,2013-04-21 04:08:00,
2013-04-20 21:09:00,63.6,51.2,29.87,SE,131,1.0,1.0,64,0.00,,,0.00,VWS V14.01,2013-04-21 04:09:00,
2013-04-20 21:12:00,63.6,50.8,29.87,SE,131,1.0,1.0,63,0.00,,,0.00,VWS V14.01,2013-04-21 04:12:00,
2013-04-20 21:14:00,63.6,50.8,29.87,SSE,153,0.0,1.0,63,0.00,,,0.00,VWS V14.01,2013-04-21 04:14:00,
2013-04-20 21:15:00,63.5,50.7,29.87,SSE,153,0.0,0.0,63,0.00,,,0.00,VWS V14.01,2013-04-21 04:15:00,
2013-04-20 21:18:00,63.4,50.6,29.87,SSE,154,0.0,0.0,63,0.00,,,0.00,VWS V14.01,2013-04-21 04:18:00,
2013-04-20 21:20:00,63.4,50.6,29.87,SSE,153,0.0,0.0,63,0.00,,,0.00,VWS V14.01,2013-04-21 04:20:00,
2013-04-20 21:21:00,63.4,50.6,29.87,SSE,153,0.0,0.0,63,0.00,,,0.00,VWS V14.01,2013-04-21 04:21:00,
2013-04-20 21:23:00,63.4,50.6,29.87,SE,128,1.0,1.0,63,0.00,,,0.00,VWS V14.01,2013-04-21 04:23:00,
2013-04-20 21:25:00,63.5,50.7,29.87,SE,129,1.0,1.0,63,0.00,,,0.00,VWS V14.01,2013-04-21 04:25:00,
2013-04-20 21:26:00,63.5,50.7,29.87,SE,127,1.0,1.0,63,0.00,,,0.00,VWS V14.01,2013-04-21 04:26:00,
2013-04-20 21:27:00,63.5,50.7,29.87,SE,127,1.0,1.0,63,0.00,,,0.00,VWS V14.01,2013-04-21 04:27:00,
2013-04-20 21:29:00,63.4,50.6,29.87,ESE,121,1.0,2.0,63,0.00,,,0.00,VWS V14.01,2013-04-21 04:29:00,
2013-04-20 21:31:00,63.3,50.5,29.87,ESE,103,1.0,2.0,63,0.00,,,0.00,VWS V14.01,2013-04-21 04:31:00,
2013-04-20 21:33:00,63.2,50.8,29.87,ESE,117,1.0,1.0,64,0.00,,,0.00,VWS V14.01,2013-04-21 04:33:00,
2013-04-20 21:34:00,63.2,50.8,29.87,ESE,117,0.0,1.0,64,0.00,,,0.00,VWS V14.01,2013-04-21 04:34:00,
2013-04-20 21:35:00,63.2,50.8,29.88,ESE,119,1.0,2.0,64,0.00,,,0.00,VWS V14.01,2013-04-21 04:35:00,
2013-04-20 21:37:00,63.1,50.7,29.88,SE,124,1.0,1.0,64,0.00,,,0.00,VWS V14.01,2013-04-21 04:37:00,
2013-04-20 21:38:00,63.0,50.7,29.88,SE,132,1.0,1.0,64,0.00,,,0.00,VWS V14.01,2013-04-21 04:38:00,
2013-04-20 21:42:00,63.0,50.7,29.88,SE,127,1.0,1.0,64,0.00,,,0.00,VWS V14.01,2013-04-21 04:42:00,
2013-04-20 21:43:00,63.0,50.7,29.88,SE,127,1.0,1.0,64,0.00,,,0.00,VWS V14.01,2013-04-21 04:43:00,
2013-04-20 21:44:00,63.0,50.7,29.88,ESE,121,1.0,1.0,64,0.00,,,0.00,VWS V14.01,2013-04-21 04:44:00,
2013-04-20 21:48:00,63.0,50.7,29.88,SE,143,0.0,1.0,64,0.00,,,0.00,VWS V14.01,2013-04-21 04:48:00,
2013-04-20 21:50:00,63.0,50.7,29.88,SSE,160,0.0,1.0,64,0.00,,,0.00,VWS V14.01,2013-04-21 04:50:00,
2013-04-20 21:51:00,63.0,50.7,29.88,SSE,160,0.0,0.0,64,0.00,,,0.00,VWS V14.01,2013-04-21 04:51:00,
2013-04-20 21:53:00,62.9,51.0,29.88,SE,141,1.0,1.0,65,0.00,,,0.00,VWS V14.01,2013-04-21 04:53:00,
2013-04-20 21:54:00,62.9,51.0,29.88,SSE,148,1.0,2.0,65,0.00,,,0.00,VWS V14.01,2013-04-21 04:54:00,
2013-04-20 21:56:00,62.9,51.4,29.88,SSE,167,2.0,3.0,66,0.00,,,0.00,VWS V14.01,2013-04-21 04:56:00,
2013-04-20 21:59:00,62.8,51.3,29.88,SE,135,1.0,2.0,66,0.00,,,0.00,VWS V14.01,2013-04-21 04:59:00,
2013-04-20 22:00:00,62.8,51.3,29.88,SE,124,1.0,1.0,66,0.00,,,0.00,VWS V14.01,2013-04-21 05:00:00,
2013-04-20 22:01:00,62.7,51.6,29.88,ESE,106,1.0,3.0,67,0.00,,,0.00,VWS V14.01,2013-04-21 05:01:00,
2013-04-20 22:03:00,62.7,51.6,29.88,East,98,3.0,3.0,67,0.00,,,0.00,VWS V14.01,2013-04-21 05:03:00,
2013-04-20 22:04:00,62.6,51.9,29.88,SE,141,2.0,3.0,68,0.00,,,0.00,VWS V14.01,2013-04-21 05:04:00,
2013-04-20 22:06:00,62.5,51.8,29.88,ESE,117,3.0,4.0,68,0.00,,,0.00,VWS V14.01,2013-04-21 05:06:00,
2013-04-20 22:07:00,62.5,51.8,29.88,SE,131,2.0,4.0,68,0.00,,,0.00,VWS V14.01,2013-04-21 05:07:00,
2013-04-20 22:09:00,62.4,52.1,29.88,SE,146,3.0,4.0,69,0.00,,,0.00,VWS V14.01,2013-04-21 05:09:00,
2013-04-20 22:10:00,62.4,52.5,29.88,SE,143,2.0,4.0,70,0.00,,,0.00,VWS V14.01,2013-04-21 05:10:00,
2013-04-20 22:14:00,62.1,52.2,29.88,ESE,103,3.0,3.0,70,0.00,,,0.00,VWS V14.01,2013-04-21 05:14:00,
2013-04-20 22:15:00,62.1,52.6,29.88,East,95,5.0,6.0,71,0.00,,,0.00,VWS V14.01,2013-04-21 05:15:00,
2013-04-20 22:17:00,62.0,52.1,29.88,South,179,2.0,5.0,70,0.00,,,0.00,VWS V14.01,2013-04-21 05:17:00,
2013-04-20 22:18:00,62.0,52.5,29.88,SE,134,3.0,3.0,71,0.00,,,0.00,VWS V14.01,2013-04-21 05:18:00,
2013-04-20 22:19:00,62.0,52.1,29.88,SSE,152,2.0,4.0,70,0.00,,,0.00,VWS V14.01,2013-04-21 05:19:00,
2013-04-20 22:20:00,61.9,52.0,29.88,SSE,148,6.0,6.0,70,0.00,,,0.00,VWS V14.01,2013-04-21 05:20:00,
2013-04-20 22:23:00,61.9,52.0,29.88,SE,135,1.0,2.0,70,0.00,,,0.00,VWS V14.01,2013-04-21 05:23:00,
2013-04-20 22:24:00,61.9,52.0,29.88,SE,141,0.0,2.0,70,0.00,,,0.00,VWS V14.01,2013-04-21 05:24:00,
2013-04-20 22:26:00,61.8,51.9,29.88,SE,131,4.0,4.0,70,0.00,,,0.00,VWS V14.01,2013-04-21 05:26:00,
2013-04-20 22:27:00,61.8,51.5,29.88,ESE,114,1.0,3.0,69,0.00,,,0.00,VWS V14.01,2013-04-21 05:27:00,
2013-04-20 22:28:00,61.8,51.5,29.88,SE,136,2.0,4.0,69,0.00,,,0.00,VWS V14.01,2013-04-21 05:28:00,
2013-04-20 22:29:00,61.8,51.5,29.88,SSE,148,3.0,4.0,69,0.00,,,0.00,VWS V14.01,2013-04-21 05:29:00,
2013-04-20 22:31:00,61.7,51.4,29.88,ESE,113,1.0,3.0,69,0.00,,,0.00,VWS V14.01,2013-04-21 05:31:00,
2013-04-20 22:33:00,61.7,52.2,29.88,ESE,117,2.0,3.0,71,0.00,,,0.00,VWS V14.01,2013-04-21 05:33:00,
2013-04-20 22:34:00,61.6,52.5,29.88,ESE,122,1.0,3.0,72,0.00,,,0.00,VWS V14.01,2013-04-21 05:34:00,
2013-04-20 22:36:00,61.5,52.8,29.89,SSE,154,2.0,4.0,73,0.00,,,0.00,VWS V14.01,2013-04-21 05:36:00,
2013-04-20 22:39:00,61.3,53.3,29.89,SE,134,1.0,4.0,75,0.00,,,0.00,VWS V14.01,2013-04-21 05:39:00,
2013-04-20 22:40:00,61.3,53.3,29.89,ESE,117,4.0,4.0,75,0.00,,,0.00,VWS V14.01,2013-04-21 05:40:00,
2013-04-20 22:41:00,61.2,53.6,29.89,SSE,150,1.0,3.0,76,0.00,,,0.00,VWS V14.01,2013-04-21 05:41:00,
2013-04-20 22:44:00,61.1,53.8,29.89,ESE,115,1.0,2.0,77,0.00,,,0.00,VWS V14.01,2013-04-21 05:44:00,
2013-04-20 22:45:00,61.0,53.8,29.89,ESE,119,2.0,5.0,77,0.00,,,0.00,VWS V14.01,2013-04-21 05:45:00,
2013-04-20 22:46:00,60.9,53.7,29.89,ESE,114,1.0,2.0,77,0.00,,,0.00,VWS V14.01,2013-04-21 05:46:00,
2013-04-20 22:50:00,60.8,53.9,29.89,SE,136,1.0,4.0,78,0.00,,,0.00,VWS V14.01,2013-04-21 05:50:00,
2013-04-20 22:51:00,60.7,53.8,29.89,ESE,106,3.0,4.0,78,0.00,,,0.00,VWS V14.01,2013-04-21 05:51:00,
2013-04-20 22:52:00,60.7,53.8,29.89,SE,128,2.0,3.0,78,0.00,,,0.00,VWS V14.01,2013-04-21 05:52:00,
2013-04-20 22:54:00,60.6,54.1,29.89,ESE,108,2.0,4.0,79,0.00,,,0.00,VWS V14.01,2013-04-21 05:54:00,
2013-04-20 22:56:00,60.5,54.0,29.89,SE,143,2.0,3.0,79,0.00,,,0.00,VWS V14.01,2013-04-21 05:56:00,
2013-04-20 22:57:00,60.5,54.3,29.88,SE,127,1.0,2.0,80,0.00,,,0.00,VWS V14.01,2013-04-21 05:57:00,
2013-04-20 23:00:00,60.4,54.2,29.89,SE,124,1.0,2.0,80,0.00,,,0.00,VWS V14.01,2013-04-21 06:00:00,
2013-04-20 23:02:00,60.3,54.5,29.89,SE,134,2.0,2.0,81,0.00,,,0.00,VWS V14.01,2013-04-21 06:02:00,
2013-04-20 23:03:00,60.2,54.4,29.89,SSE,159,2.0,2.0,81,0.00,,,0.00,VWS V14.01,2013-04-21 06:03:00,
2013-04-20 23:05:00,60.1,54.3,29.89,SSE,158,0.0,0.0,81,0.00,,,0.00,VWS V14.01,2013-04-21 06:05:00,
2013-04-20 23:06:00,60.1,54.6,29.89,SE,134,1.0,1.0,82,0.00,,,0.00,VWS V14.01,2013-04-21 06:06:00,
2013-04-20 23:08:00,60.0,54.5,29.89,ESE,111,1.0,2.0,82,0.00,,,0.00,VWS V14.01,2013-04-21 06:08:00,
2013-04-20 23:09:00,60.0,54.5,29.89,ESE,120,1.0,1.0,82,0.00,,,0.00,VWS V14.01,2013-04-21 06:09:00,
2013-04-20 23:10:00,60.0,54.5,29.89,ESE,117,0.0,1.0,82,0.00,,,0.00,VWS V14.01,2013-04-21 06:10:00,
2013-04-20 23:11:00,60.0,54.8,29.89,SE,124,1.0,2.0,83,0.00,,,0.00,VWS V14.01,2013-04-21 06:11:00,
2013-04-20 23:14:00,59.9,54.7,29.89,SE,124,1.0,2.0,83,0.00,,,0.00,VWS V14.01,2013-04-21 06:14:00,
2013-04-20 23:15:00,59.9,54.7,29.89,ESE,114,0.0,1.0,83,0.00,,,0.00,VWS V14.01,2013-04-21 06:15:00,
2013-04-20 23:16:00,59.9,54.7,29.89,East,92,3.0,3.0,83,0.00,,,0.00,VWS V14.01,2013-04-21 06:16:00,
2013-04-20 23:20:00,59.8,55.0,29.89,ESE,102,2.0,2.0,84,0.00,,,0.00,VWS V14.01,2013-04-21 06:20:00,
2013-04-20 23:21:00,59.8,55.3,29.88,SE,133,1.0,2.0,85,0.00,,,0.00,VWS V14.01,2013-04-21 06:21:00,
2013-04-20 23:22:00,59.8,55.3,29.88,ESE,111,2.0,2.0,85,0.00,,,0.00,VWS V14.01,2013-04-21 06:22:00,
2013-04-20 23:24:00,59.7,55.2,29.89,ESE,110,4.0,4.0,85,0.00,,,0.00,VWS V14.01,2013-04-21 06:24:00,
2013-04-20 23:27:00,59.7,55.5,29.89,ESE,120,2.0,3.0,86,0.00,,,0.00,VWS V14.01,2013-04-21 06:27:00,
2013-04-20 23:28:00,59.6,55.4,29.89,SE,141,1.0,2.0,86,0.00,,,0.00,VWS V14.01,2013-04-21 06:28:00,
2013-04-20 23:29:00,59.6,55.4,29.89,ESE,105,1.0,1.0,86,0.00,,,0.00,VWS V14.01,2013-04-21 06:29:00,
2013-04-20 23:30:00,59.6,55.4,29.89,East,89,0.0,1.0,86,0.00,,,0.00,VWS V14.01,2013-04-21 06:30:00,
2013-04-20 23:34:00,59.5,55.3,29.89,ESE,121,1.0,1.0,86,0.00,,,0.00,VWS V14.01,2013-04-21 06:34:00,
2013-04-20 23:35:00,59.5,55.3,29.89,ESE,111,2.0,2.0,86,0.00,,,0.00,VWS V14.01,2013-04-21 06:35:00,
2013-04-20 23:37:00,59.4,55.2,29.89,SE,142,1.0,1.0,86,0.00,,,0.00,VWS V14.01,2013-04-21 06:37:00,
2013-04-20 23:40:00,59.3,55.4,29.89,SE,124,0.0,2.0,87,0.00,,,0.00,VWS V14.01,2013-04-21 06:40:00,
2013-04-20 23:41:00,59.3,55.4,29.89,SE,139,1.0,1.0,87,0.00,,,0.00,VWS V14.01,2013-04-21 06:41:00,
2013-04-20 23:42:00,59.3,55.4,29.89,SE,143,1.0,2.0,87,0.00,,,0.00,VWS V14.01,2013-04-21 06:42:00,
2013-04-20 23:43:00,59.3,55.4,29.89,SE,143,1.0,2.0,87,0.00,,,0.00,VWS V14.01,2013-04-21 06:43:00,
2013-04-20 23:46:00,59.2,55.3,29.89,ESE,113,1.0,1.0,87,0.00,,,0.00,VWS V14.01,2013-04-21 06:46:00,
2013-04-20 23:47:00,59.1,55.2,29.89,ESE,113,1.0,1.0,87,0.00,,,0.00,VWS V14.01,2013-04-21 06:47:00,
2013-04-20 23:48:00,59.1,55.2,29.89,ESE,113,1.0,1.0,87,0.00,,,0.00,VWS V14.01,2013-04-21 06:48:00,
2013-04-20 23:49:00,59.0,55.1,29.89,ESE,113,0.0,1.0,87,0.00,,,0.00,VWS V14.01,2013-04-21 06:49:00,
2013-04-20 23:52:00,58.9,55.0,29.89,SE,141,1.0,1.0,87,0.00,,,0.00,VWS V14.01,2013-04-21 06:52:00,
2013-04-20 23:53:00,58.9,55.0,29.89,SE,130,0.0,1.0,87,0.00,,,0.00,VWS V14.01,2013-04-21 06:53:00,
2013-04-20 23:54:00,58.9,55.0,29.89,SE,124,1.0,1.0,87,0.00,,,0.00,VWS V14.01,2013-04-21 06:54:00,
2013-04-20 23:55:00,58.8,55.0,29.89,ESE,122,1.0,1.0,87,0.00,,,0.00,VWS V14.01,2013-04-21 06:55:00,
2013-04-20 23:58:00,58.8,55.0,29.89,ESE,122,1.0,1.0,87,0.00,,,0.00,VWS V14.01,2013-04-21 06:58:00,